<?xml version="1.0" encoding="UTF-8" standalone="no" ?>
<gpx xmlns="http://www.topografix.com/GPX/1/1" xmlns:xsi="http://www.w3.org/2001/XMLSchema-instance" xsi:schemaLocation="http://www.topografix.com/GPX/1/1 http://www.topografix.com/GPX/1/1/gpx.xsd" version="1.1" creator="VisuGPX - https://www.visugpx.com">
  <metadata>
    <name>mont St Baudille depuis les salces</name>
    <desc><![CDATA[depuis les Salces ( Commune de St Privat )  au travers de la foret de  Partlages    rejoindre le GR 74 qui mène au Mont St Baudille, puis retour par le col du vent]]></desc>
  </metadata>
  <wpt lat="43.75444" lon="3.4359">
    <ele>313.58</ele>
    <name><![CDATA[0000041]]></name>
    <desc><![CDATA[]]></desc>
    <type><![CDATA[Point de départ]]></type>
  </wpt>
  <wpt lat="43.75446" lon="3.43568">
    <ele>308.76</ele>
    <name><![CDATA[0000042]]></name>
    <desc><![CDATA[<br /><h3>Nom: Segment 1</h3><br /><p>Temps de départ: 09/04/2014 08:42</p><p>Temps d'arrivée: 09/04/2014 14:53</p><p>Distance: 17,4 km (06:10)</p><p>Temps déplacement: 04:12</p><p>Vitesse moyenne: 2,8 km/h</p><p>Vitesse moyenne: 4,1 km/h</p><p>Vitess Max.: 8,4 km/h</p><p>Altitude minimale: 300 m</p><p>Altitude maximale: 848 m</p><p>Vitesse d'élévation: 348,4 m/h</p><p>Vitesse de descente: -224,7 m/h</p><p>Gain Altitude: 788 m</p><p>Perte Altitude: -798 m</p><p>Temps d'élévation: 02:15</p><p>Temps de descente: 03:33</p>]]></desc>
    <type><![CDATA[Point d'arrivée]]></type>
  </wpt>
  <trk>
    <name><![CDATA[2014-09-04 08:42]]></name>
    <desc><![CDATA[<h1>OruxMaps</h1><br /><hr align="center" width="480" style="height: 2px; width: 517px"/><h2>Nom: 2014-09-04 08:42</h2><br /><p>Temps de départ: 09/04/2014 08:42</p><p>Temps d'arrivée: 09/04/2014 14:53</p><p>Distance: 17,4 km (06:10)</p><p>Temps déplacement: 04:12</p><p>Vitesse moyenne: 2,8 km/h</p><p>Vitesse moyenne: 4,1 km/h</p><p>Vitess Max.: 8,4 km/h</p><p>Altitude minimale: 300 m</p><p>Altitude maximale: 848 m</p><p>Vitesse d'élévation: 348,4 m/h</p><p>Vitesse de descente: -224,7 m/h</p><p>Gain Altitude: 788 m</p><p>Perte Altitude: -798 m</p><p>Temps d'élévation: 02:15</p><p>Temps de descente: 03:33</p><hr align="center" width="480" style="height: 2px; width: 517px"/>]]></desc>
    <trkseg>
      <trkpt lat="43.75444" lon="3.4359">
        <ele>313.58</ele>
        <time>2014-09-04T06:42:51Z</time>
      </trkpt>
      <trkpt lat="43.75453" lon="3.43566">
        <ele>306.58</ele>
        <time>2014-09-04T06:42:54Z</time>
      </trkpt>
      <trkpt lat="43.75468" lon="3.43581">
        <ele>308.14</ele>
        <time>2014-09-04T06:47:48Z</time>
      </trkpt>
      <trkpt lat="43.75468" lon="3.43606">
        <ele>311.56</ele>
        <time>2014-09-04T06:48:09Z</time>
      </trkpt>
      <trkpt lat="43.75486" lon="3.43606">
        <ele>310.13</ele>
        <time>2014-09-04T06:48:31Z</time>
      </trkpt>
      <trkpt lat="43.75505" lon="3.43608">
        <ele>308.64</ele>
        <time>2014-09-04T06:48:45Z</time>
      </trkpt>
      <trkpt lat="43.75523" lon="3.43607">
        <ele>308.64</ele>
        <time>2014-09-04T06:49:01Z</time>
      </trkpt>
      <trkpt lat="43.75524" lon="3.43632">
        <ele>306.88</ele>
        <time>2014-09-04T06:49:20Z</time>
      </trkpt>
      <trkpt lat="43.75521" lon="3.43658">
        <ele>310.1</ele>
        <time>2014-09-04T06:49:38Z</time>
      </trkpt>
      <trkpt lat="43.75508" lon="3.43676">
        <ele>314.86</ele>
        <time>2014-09-04T06:49:53Z</time>
      </trkpt>
      <trkpt lat="43.75495" lon="3.43694">
        <ele>313.39</ele>
        <time>2014-09-04T06:50:08Z</time>
      </trkpt>
      <trkpt lat="43.75483" lon="3.43714">
        <ele>318.37</ele>
        <time>2014-09-04T06:50:22Z</time>
      </trkpt>
      <trkpt lat="43.75472" lon="3.43734">
        <ele>317.57</ele>
        <time>2014-09-04T06:50:38Z</time>
      </trkpt>
      <trkpt lat="43.75463" lon="3.43756">
        <ele>317.05</ele>
        <time>2014-09-04T06:50:55Z</time>
      </trkpt>
      <trkpt lat="43.75453" lon="3.43778">
        <ele>318.92</ele>
        <time>2014-09-04T06:51:19Z</time>
      </trkpt>
      <trkpt lat="43.75444" lon="3.43802">
        <ele>319.51</ele>
        <time>2014-09-04T06:51:31Z</time>
      </trkpt>
      <trkpt lat="43.75438" lon="3.43825">
        <ele>322.76</ele>
        <time>2014-09-04T06:51:43Z</time>
      </trkpt>
      <trkpt lat="43.75433" lon="3.43851">
        <ele>324.12</ele>
        <time>2014-09-04T06:51:58Z</time>
      </trkpt>
      <trkpt lat="43.75429" lon="3.43877">
        <ele>326.44</ele>
        <time>2014-09-04T06:52:14Z</time>
      </trkpt>
      <trkpt lat="43.75426" lon="3.43902">
        <ele>327.79</ele>
        <time>2014-09-04T06:52:30Z</time>
      </trkpt>
      <trkpt lat="43.75422" lon="3.43928">
        <ele>329.02</ele>
        <time>2014-09-04T06:52:46Z</time>
      </trkpt>
      <trkpt lat="43.75419" lon="3.43954">
        <ele>331.4</ele>
        <time>2014-09-04T06:53:07Z</time>
      </trkpt>
      <trkpt lat="43.75419" lon="3.4398">
        <ele>332.33</ele>
        <time>2014-09-04T06:53:23Z</time>
      </trkpt>
      <trkpt lat="43.75424" lon="3.44005">
        <ele>332.76</ele>
        <time>2014-09-04T06:53:39Z</time>
      </trkpt>
      <trkpt lat="43.75438" lon="3.43988">
        <ele>333.06</ele>
        <time>2014-09-04T06:54:02Z</time>
      </trkpt>
      <trkpt lat="43.75443" lon="3.43963">
        <ele>340.16</ele>
        <time>2014-09-04T06:54:15Z</time>
      </trkpt>
      <trkpt lat="43.75452" lon="3.43941">
        <ele>341.7</ele>
        <time>2014-09-04T06:54:27Z</time>
      </trkpt>
      <trkpt lat="43.75461" lon="3.43919">
        <ele>336.57</ele>
        <time>2014-09-04T06:54:47Z</time>
      </trkpt>
      <trkpt lat="43.75471" lon="3.43899">
        <ele>336.66</ele>
        <time>2014-09-04T06:55:00Z</time>
      </trkpt>
      <trkpt lat="43.75486" lon="3.43884">
        <ele>337.45</ele>
        <time>2014-09-04T06:55:13Z</time>
      </trkpt>
      <trkpt lat="43.75502" lon="3.43868">
        <ele>341.52</ele>
        <time>2014-09-04T06:55:27Z</time>
      </trkpt>
      <trkpt lat="43.75516" lon="3.43852">
        <ele>339.53</ele>
        <time>2014-09-04T06:55:41Z</time>
      </trkpt>
      <trkpt lat="43.75529" lon="3.43833">
        <ele>337.61</ele>
        <time>2014-09-04T06:56:01Z</time>
      </trkpt>
      <trkpt lat="43.75544" lon="3.43816">
        <ele>339.23</ele>
        <time>2014-09-04T06:56:17Z</time>
      </trkpt>
      <trkpt lat="43.7556" lon="3.43805">
        <ele>342.94</ele>
        <time>2014-09-04T06:56:31Z</time>
      </trkpt>
      <trkpt lat="43.75578" lon="3.43805">
        <ele>345.57</ele>
        <time>2014-09-04T06:56:45Z</time>
      </trkpt>
      <trkpt lat="43.75597" lon="3.43808">
        <ele>349.2</ele>
        <time>2014-09-04T06:57:00Z</time>
      </trkpt>
      <trkpt lat="43.75615" lon="3.43813">
        <ele>350.58</ele>
        <time>2014-09-04T06:57:16Z</time>
      </trkpt>
      <trkpt lat="43.75634" lon="3.43816">
        <ele>349.82</ele>
        <time>2014-09-04T06:57:42Z</time>
      </trkpt>
      <trkpt lat="43.75651" lon="3.43811">
        <ele>350.24</ele>
        <time>2014-09-04T06:57:58Z</time>
      </trkpt>
      <trkpt lat="43.75671" lon="3.43808">
        <ele>349.98</ele>
        <time>2014-09-04T06:58:13Z</time>
      </trkpt>
      <trkpt lat="43.75689" lon="3.43806">
        <ele>355.48</ele>
        <time>2014-09-04T06:58:39Z</time>
      </trkpt>
      <trkpt lat="43.75706" lon="3.43816">
        <ele>351.39</ele>
        <time>2014-09-04T06:58:50Z</time>
      </trkpt>
      <trkpt lat="43.75724" lon="3.43829">
        <ele>350.19</ele>
        <time>2014-09-04T06:59:02Z</time>
      </trkpt>
      <trkpt lat="43.7574" lon="3.43842">
        <ele>347.21</ele>
        <time>2014-09-04T06:59:15Z</time>
      </trkpt>
      <trkpt lat="43.75759" lon="3.43841">
        <ele>352.13</ele>
        <time>2014-09-04T06:59:31Z</time>
      </trkpt>
      <trkpt lat="43.75776" lon="3.43835">
        <ele>351.82</ele>
        <time>2014-09-04T06:59:46Z</time>
      </trkpt>
      <trkpt lat="43.75792" lon="3.43822">
        <ele>355.69</ele>
        <time>2014-09-04T07:00:00Z</time>
      </trkpt>
      <trkpt lat="43.7581" lon="3.43824">
        <ele>358.72</ele>
        <time>2014-09-04T07:00:14Z</time>
      </trkpt>
      <trkpt lat="43.75824" lon="3.43842">
        <ele>363.74</ele>
        <time>2014-09-04T07:00:30Z</time>
      </trkpt>
      <trkpt lat="43.7584" lon="3.43854">
        <ele>365.32</ele>
        <time>2014-09-04T07:00:47Z</time>
      </trkpt>
      <trkpt lat="43.75858" lon="3.43862">
        <ele>364.54</ele>
        <time>2014-09-04T07:01:01Z</time>
      </trkpt>
      <trkpt lat="43.75875" lon="3.43871">
        <ele>368.06</ele>
        <time>2014-09-04T07:01:17Z</time>
      </trkpt>
      <trkpt lat="43.75889" lon="3.43888">
        <ele>364.15</ele>
        <time>2014-09-04T07:01:31Z</time>
      </trkpt>
      <trkpt lat="43.75906" lon="3.43898">
        <ele>366.07</ele>
        <time>2014-09-04T07:01:45Z</time>
      </trkpt>
      <trkpt lat="43.75925" lon="3.43904">
        <ele>370.92</ele>
        <time>2014-09-04T07:02:03Z</time>
      </trkpt>
      <trkpt lat="43.7594" lon="3.43917">
        <ele>372.17</ele>
        <time>2014-09-04T07:02:19Z</time>
      </trkpt>
      <trkpt lat="43.75957" lon="3.43931">
        <ele>374.41</ele>
        <time>2014-09-04T07:02:36Z</time>
      </trkpt>
      <trkpt lat="43.75974" lon="3.43938">
        <ele>369.1</ele>
        <time>2014-09-04T07:02:50Z</time>
      </trkpt>
      <trkpt lat="43.75955" lon="3.43939">
        <ele>384.4</ele>
        <time>2014-09-04T07:03:32Z</time>
      </trkpt>
      <trkpt lat="43.75938" lon="3.43928">
        <ele>388.3</ele>
        <time>2014-09-04T07:03:45Z</time>
      </trkpt>
      <trkpt lat="43.7592" lon="3.43922">
        <ele>381.24</ele>
        <time>2014-09-04T07:04:02Z</time>
      </trkpt>
      <trkpt lat="43.75902" lon="3.4392">
        <ele>380.51</ele>
        <time>2014-09-04T07:04:17Z</time>
      </trkpt>
      <trkpt lat="43.75883" lon="3.43921">
        <ele>384.54</ele>
        <time>2014-09-04T07:04:32Z</time>
      </trkpt>
      <trkpt lat="43.75865" lon="3.43929">
        <ele>384.21</ele>
        <time>2014-09-04T07:04:46Z</time>
      </trkpt>
      <trkpt lat="43.75847" lon="3.43936">
        <ele>386.43</ele>
        <time>2014-09-04T07:05:00Z</time>
      </trkpt>
      <trkpt lat="43.75829" lon="3.43933">
        <ele>390.05</ele>
        <time>2014-09-04T07:05:24Z</time>
      </trkpt>
      <trkpt lat="43.75811" lon="3.43929">
        <ele>388</ele>
        <time>2014-09-04T07:05:46Z</time>
      </trkpt>
      <trkpt lat="43.75791" lon="3.43929">
        <ele>391.53</ele>
        <time>2014-09-04T07:06:00Z</time>
      </trkpt>
      <trkpt lat="43.75772" lon="3.4393">
        <ele>395.57</ele>
        <time>2014-09-04T07:06:14Z</time>
      </trkpt>
      <trkpt lat="43.75753" lon="3.43933">
        <ele>391.03</ele>
        <time>2014-09-04T07:06:31Z</time>
      </trkpt>
      <trkpt lat="43.75736" lon="3.43937">
        <ele>398.77</ele>
        <time>2014-09-04T07:06:43Z</time>
      </trkpt>
      <trkpt lat="43.75718" lon="3.43945">
        <ele>395.51</ele>
        <time>2014-09-04T07:07:00Z</time>
      </trkpt>
      <trkpt lat="43.75699" lon="3.43943">
        <ele>401.56</ele>
        <time>2014-09-04T07:07:13Z</time>
      </trkpt>
      <trkpt lat="43.7568" lon="3.43948">
        <ele>405.47</ele>
        <time>2014-09-04T07:07:29Z</time>
      </trkpt>
      <trkpt lat="43.75661" lon="3.43951">
        <ele>411.88</ele>
        <time>2014-09-04T07:07:44Z</time>
      </trkpt>
      <trkpt lat="43.75644" lon="3.4396">
        <ele>410.77</ele>
        <time>2014-09-04T07:07:59Z</time>
      </trkpt>
      <trkpt lat="43.75663" lon="3.43965">
        <ele>410.3</ele>
        <time>2014-09-04T07:08:31Z</time>
      </trkpt>
      <trkpt lat="43.75682" lon="3.4396">
        <ele>406.96</ele>
        <time>2014-09-04T07:08:47Z</time>
      </trkpt>
      <trkpt lat="43.757" lon="3.43964">
        <ele>403.05</ele>
        <time>2014-09-04T07:09:02Z</time>
      </trkpt>
      <trkpt lat="43.75719" lon="3.43966">
        <ele>403.76</ele>
        <time>2014-09-04T07:09:14Z</time>
      </trkpt>
      <trkpt lat="43.75737" lon="3.43969">
        <ele>410.44</ele>
        <time>2014-09-04T07:09:31Z</time>
      </trkpt>
      <trkpt lat="43.75755" lon="3.43971">
        <ele>412.64</ele>
        <time>2014-09-04T07:09:48Z</time>
      </trkpt>
      <trkpt lat="43.75774" lon="3.43975">
        <ele>418.98</ele>
        <time>2014-09-04T07:10:04Z</time>
      </trkpt>
      <trkpt lat="43.75791" lon="3.43983">
        <ele>423.56</ele>
        <time>2014-09-04T07:10:20Z</time>
      </trkpt>
      <trkpt lat="43.75777" lon="3.44">
        <ele>423.91</ele>
        <time>2014-09-04T07:10:44Z</time>
      </trkpt>
      <trkpt lat="43.75758" lon="3.44002">
        <ele>424.79</ele>
        <time>2014-09-04T07:10:59Z</time>
      </trkpt>
      <trkpt lat="43.7574" lon="3.44002">
        <ele>419.56</ele>
        <time>2014-09-04T07:11:15Z</time>
      </trkpt>
      <trkpt lat="43.75722" lon="3.43991">
        <ele>427.57</ele>
        <time>2014-09-04T07:11:26Z</time>
      </trkpt>
      <trkpt lat="43.75706" lon="3.43979">
        <ele>430.52</ele>
        <time>2014-09-04T07:11:37Z</time>
      </trkpt>
      <trkpt lat="43.75687" lon="3.43978">
        <ele>427.84</ele>
        <time>2014-09-04T07:11:50Z</time>
      </trkpt>
      <trkpt lat="43.75674" lon="3.43996">
        <ele>429.32</ele>
        <time>2014-09-04T07:12:08Z</time>
      </trkpt>
      <trkpt lat="43.75661" lon="3.44014">
        <ele>435.78</ele>
        <time>2014-09-04T07:12:22Z</time>
      </trkpt>
      <trkpt lat="43.75653" lon="3.44036">
        <ele>439.19</ele>
        <time>2014-09-04T07:12:39Z</time>
      </trkpt>
      <trkpt lat="43.7566" lon="3.4406">
        <ele>433.58</ele>
        <time>2014-09-04T07:14:30Z</time>
      </trkpt>
      <trkpt lat="43.75666" lon="3.44084">
        <ele>438.58</ele>
        <time>2014-09-04T07:14:55Z</time>
      </trkpt>
      <trkpt lat="43.75677" lon="3.44103">
        <ele>443.56</ele>
        <time>2014-09-04T07:15:15Z</time>
      </trkpt>
      <trkpt lat="43.7569" lon="3.44121">
        <ele>447.02</ele>
        <time>2014-09-04T07:15:35Z</time>
      </trkpt>
      <trkpt lat="43.757" lon="3.44143">
        <ele>450.76</ele>
        <time>2014-09-04T07:15:53Z</time>
      </trkpt>
      <trkpt lat="43.75703" lon="3.44168">
        <ele>454.84</ele>
        <time>2014-09-04T07:16:14Z</time>
      </trkpt>
      <trkpt lat="43.75703" lon="3.44194">
        <ele>461.17</ele>
        <time>2014-09-04T07:16:35Z</time>
      </trkpt>
      <trkpt lat="43.7571" lon="3.44217">
        <ele>460.84</ele>
        <time>2014-09-04T07:16:52Z</time>
      </trkpt>
      <trkpt lat="43.75717" lon="3.44242">
        <ele>460.3</ele>
        <time>2014-09-04T07:17:11Z</time>
      </trkpt>
      <trkpt lat="43.75721" lon="3.44267">
        <ele>459.08</ele>
        <time>2014-09-04T07:17:26Z</time>
      </trkpt>
      <trkpt lat="43.7572" lon="3.44292">
        <ele>458.45</ele>
        <time>2014-09-04T07:17:41Z</time>
      </trkpt>
      <trkpt lat="43.7573" lon="3.44315">
        <ele>462.87</ele>
        <time>2014-09-04T07:17:58Z</time>
      </trkpt>
      <trkpt lat="43.75744" lon="3.44332">
        <ele>465.26</ele>
        <time>2014-09-04T07:18:14Z</time>
      </trkpt>
      <trkpt lat="43.7576" lon="3.44346">
        <ele>466.23</ele>
        <time>2014-09-04T07:18:33Z</time>
      </trkpt>
      <trkpt lat="43.75776" lon="3.4436">
        <ele>466.51</ele>
        <time>2014-09-04T07:18:49Z</time>
      </trkpt>
      <trkpt lat="43.75784" lon="3.44382">
        <ele>471.87</ele>
        <time>2014-09-04T07:19:04Z</time>
      </trkpt>
      <trkpt lat="43.75789" lon="3.44407">
        <ele>474.49</ele>
        <time>2014-09-04T07:19:22Z</time>
      </trkpt>
      <trkpt lat="43.75794" lon="3.44431">
        <ele>475.45</ele>
        <time>2014-09-04T07:19:38Z</time>
      </trkpt>
      <trkpt lat="43.75798" lon="3.44456">
        <ele>476.11</ele>
        <time>2014-09-04T07:19:58Z</time>
      </trkpt>
      <trkpt lat="43.75798" lon="3.44482">
        <ele>474.74</ele>
        <time>2014-09-04T07:20:17Z</time>
      </trkpt>
      <trkpt lat="43.75799" lon="3.44507">
        <ele>480.61</ele>
        <time>2014-09-04T07:20:36Z</time>
      </trkpt>
      <trkpt lat="43.75806" lon="3.4453">
        <ele>479.73</ele>
        <time>2014-09-04T07:20:55Z</time>
      </trkpt>
      <trkpt lat="43.75814" lon="3.44553">
        <ele>483.25</ele>
        <time>2014-09-04T07:21:13Z</time>
      </trkpt>
      <trkpt lat="43.75821" lon="3.44576">
        <ele>485.55</ele>
        <time>2014-09-04T07:21:30Z</time>
      </trkpt>
      <trkpt lat="43.75828" lon="3.446">
        <ele>489.3</ele>
        <time>2014-09-04T07:21:47Z</time>
      </trkpt>
      <trkpt lat="43.75834" lon="3.44624">
        <ele>493.58</ele>
        <time>2014-09-04T07:22:04Z</time>
      </trkpt>
      <trkpt lat="43.75846" lon="3.44644">
        <ele>492.53</ele>
        <time>2014-09-04T07:22:27Z</time>
      </trkpt>
      <trkpt lat="43.75859" lon="3.44662">
        <ele>493.31</ele>
        <time>2014-09-04T07:22:47Z</time>
      </trkpt>
      <trkpt lat="43.7587" lon="3.44681">
        <ele>496.57</ele>
        <time>2014-09-04T07:23:07Z</time>
      </trkpt>
      <trkpt lat="43.75883" lon="3.44699">
        <ele>498.52</ele>
        <time>2014-09-04T07:23:23Z</time>
      </trkpt>
      <trkpt lat="43.759" lon="3.44713">
        <ele>501.51</ele>
        <time>2014-09-04T07:23:42Z</time>
      </trkpt>
      <trkpt lat="43.75903" lon="3.44737">
        <ele>502.52</ele>
        <time>2014-09-04T07:24:01Z</time>
      </trkpt>
      <trkpt lat="43.75916" lon="3.44756">
        <ele>512.59</ele>
        <time>2014-09-04T07:24:37Z</time>
      </trkpt>
      <trkpt lat="43.75934" lon="3.44765">
        <ele>512.57</ele>
        <time>2014-09-04T07:25:00Z</time>
      </trkpt>
      <trkpt lat="43.7595" lon="3.44775">
        <ele>517.51</ele>
        <time>2014-09-04T07:25:23Z</time>
      </trkpt>
      <trkpt lat="43.75964" lon="3.44791">
        <ele>520.87</ele>
        <time>2014-09-04T07:25:49Z</time>
      </trkpt>
      <trkpt lat="43.7598" lon="3.44804">
        <ele>523.39</ele>
        <time>2014-09-04T07:26:14Z</time>
      </trkpt>
      <trkpt lat="43.75997" lon="3.44812">
        <ele>524.82</ele>
        <time>2014-09-04T07:26:43Z</time>
      </trkpt>
      <trkpt lat="43.76007" lon="3.44833">
        <ele>531.26</ele>
        <time>2014-09-04T07:27:13Z</time>
      </trkpt>
      <trkpt lat="43.76022" lon="3.44848">
        <ele>536.7</ele>
        <time>2014-09-04T07:27:39Z</time>
      </trkpt>
      <trkpt lat="43.76037" lon="3.44861">
        <ele>538.36</ele>
        <time>2014-09-04T07:28:02Z</time>
      </trkpt>
      <trkpt lat="43.76049" lon="3.44882">
        <ele>540.45</ele>
        <time>2014-09-04T07:28:23Z</time>
      </trkpt>
      <trkpt lat="43.76057" lon="3.44905">
        <ele>545.2</ele>
        <time>2014-09-04T07:28:40Z</time>
      </trkpt>
      <trkpt lat="43.76064" lon="3.44928">
        <ele>550.26</ele>
        <time>2014-09-04T07:29:00Z</time>
      </trkpt>
      <trkpt lat="43.76074" lon="3.4495">
        <ele>548.24</ele>
        <time>2014-09-04T07:29:20Z</time>
      </trkpt>
      <trkpt lat="43.76081" lon="3.44974">
        <ele>548.42</ele>
        <time>2014-09-04T07:29:41Z</time>
      </trkpt>
      <trkpt lat="43.76089" lon="3.44996">
        <ele>554.01</ele>
        <time>2014-09-04T07:30:05Z</time>
      </trkpt>
      <trkpt lat="43.76105" lon="3.45009">
        <ele>557.51</ele>
        <time>2014-09-04T07:30:40Z</time>
      </trkpt>
      <trkpt lat="43.76119" lon="3.45027">
        <ele>561.58</ele>
        <time>2014-09-04T07:31:06Z</time>
      </trkpt>
      <trkpt lat="43.76131" lon="3.45046">
        <ele>564.95</ele>
        <time>2014-09-04T07:31:32Z</time>
      </trkpt>
      <trkpt lat="43.76146" lon="3.4506">
        <ele>562.61</ele>
        <time>2014-09-04T07:31:58Z</time>
      </trkpt>
      <trkpt lat="43.7616" lon="3.45076">
        <ele>573.72</ele>
        <time>2014-09-04T07:32:21Z</time>
      </trkpt>
      <trkpt lat="43.76173" lon="3.45096">
        <ele>578.9</ele>
        <time>2014-09-04T07:32:44Z</time>
      </trkpt>
      <trkpt lat="43.76186" lon="3.45113">
        <ele>580.03</ele>
        <time>2014-09-04T07:33:05Z</time>
      </trkpt>
      <trkpt lat="43.76199" lon="3.45131">
        <ele>582.61</ele>
        <time>2014-09-04T07:33:27Z</time>
      </trkpt>
      <trkpt lat="43.76215" lon="3.45143">
        <ele>580.48</ele>
        <time>2014-09-04T07:33:45Z</time>
      </trkpt>
      <trkpt lat="43.76229" lon="3.45159">
        <ele>580</ele>
        <time>2014-09-04T07:34:00Z</time>
      </trkpt>
      <trkpt lat="43.76238" lon="3.45181">
        <ele>578.85</ele>
        <time>2014-09-04T07:34:16Z</time>
      </trkpt>
      <trkpt lat="43.76248" lon="3.45202">
        <ele>577.99</ele>
        <time>2014-09-04T07:34:32Z</time>
      </trkpt>
      <trkpt lat="43.76262" lon="3.45218">
        <ele>576.83</ele>
        <time>2014-09-04T07:34:51Z</time>
      </trkpt>
      <trkpt lat="43.76258" lon="3.45242">
        <ele>572.89</ele>
        <time>2014-09-04T07:35:13Z</time>
      </trkpt>
      <trkpt lat="43.7624" lon="3.45246">
        <ele>570.13</ele>
        <time>2014-09-04T07:35:35Z</time>
      </trkpt>
      <trkpt lat="43.76248" lon="3.45269">
        <ele>582.42</ele>
        <time>2014-09-04T07:42:52Z</time>
      </trkpt>
      <trkpt lat="43.76258" lon="3.4529">
        <ele>582.47</ele>
        <time>2014-09-04T07:43:18Z</time>
      </trkpt>
      <trkpt lat="43.7624" lon="3.45293">
        <ele>585.35</ele>
        <time>2014-09-04T07:44:00Z</time>
      </trkpt>
      <trkpt lat="43.76231" lon="3.45315">
        <ele>594.59</ele>
        <time>2014-09-04T07:44:43Z</time>
      </trkpt>
      <trkpt lat="43.76233" lon="3.4534">
        <ele>618.2</ele>
        <time>2014-09-04T07:45:48Z</time>
      </trkpt>
      <trkpt lat="43.76246" lon="3.45358">
        <ele>624.45</ele>
        <time>2014-09-04T07:46:13Z</time>
      </trkpt>
      <trkpt lat="43.76261" lon="3.45372">
        <ele>632.53</ele>
        <time>2014-09-04T07:46:38Z</time>
      </trkpt>
      <trkpt lat="43.76276" lon="3.45388">
        <ele>628.15</ele>
        <time>2014-09-04T07:47:02Z</time>
      </trkpt>
      <trkpt lat="43.76292" lon="3.454">
        <ele>631.87</ele>
        <time>2014-09-04T07:47:24Z</time>
      </trkpt>
      <trkpt lat="43.76309" lon="3.45407">
        <ele>637.17</ele>
        <time>2014-09-04T07:47:46Z</time>
      </trkpt>
      <trkpt lat="43.76328" lon="3.45412">
        <ele>649</ele>
        <time>2014-09-04T07:48:19Z</time>
      </trkpt>
      <trkpt lat="43.76345" lon="3.45422">
        <ele>647.27</ele>
        <time>2014-09-04T07:49:08Z</time>
      </trkpt>
      <trkpt lat="43.76362" lon="3.45413">
        <ele>656.24</ele>
        <time>2014-09-04T07:49:37Z</time>
      </trkpt>
      <trkpt lat="43.76365" lon="3.45438">
        <ele>667.34</ele>
        <time>2014-09-04T07:50:47Z</time>
      </trkpt>
      <trkpt lat="43.76379" lon="3.45454">
        <ele>664.51</ele>
        <time>2014-09-04T07:51:34Z</time>
      </trkpt>
      <trkpt lat="43.76361" lon="3.45462">
        <ele>669.71</ele>
        <time>2014-09-04T07:51:56Z</time>
      </trkpt>
      <trkpt lat="43.76344" lon="3.4547">
        <ele>676.59</ele>
        <time>2014-09-04T07:52:16Z</time>
      </trkpt>
      <trkpt lat="43.76326" lon="3.45464">
        <ele>674.06</ele>
        <time>2014-09-04T07:52:35Z</time>
      </trkpt>
      <trkpt lat="43.7631" lon="3.45478">
        <ele>678.32</ele>
        <time>2014-09-04T07:52:57Z</time>
      </trkpt>
      <trkpt lat="43.76293" lon="3.4549">
        <ele>681.42</ele>
        <time>2014-09-04T07:53:14Z</time>
      </trkpt>
      <trkpt lat="43.76292" lon="3.45515">
        <ele>689.61</ele>
        <time>2014-09-04T07:53:32Z</time>
      </trkpt>
      <trkpt lat="43.7628" lon="3.45535">
        <ele>690.88</ele>
        <time>2014-09-04T07:54:21Z</time>
      </trkpt>
      <trkpt lat="43.76262" lon="3.45539">
        <ele>694.72</ele>
        <time>2014-09-04T08:04:16Z</time>
      </trkpt>
      <trkpt lat="43.76244" lon="3.45544">
        <ele>697.33</ele>
        <time>2014-09-04T08:04:38Z</time>
      </trkpt>
      <trkpt lat="43.76226" lon="3.45539">
        <ele>697.52</ele>
        <time>2014-09-04T08:04:58Z</time>
      </trkpt>
      <trkpt lat="43.76207" lon="3.45537">
        <ele>697.1</ele>
        <time>2014-09-04T08:05:14Z</time>
      </trkpt>
      <trkpt lat="43.76189" lon="3.45537">
        <ele>700.41</ele>
        <time>2014-09-04T08:05:30Z</time>
      </trkpt>
      <trkpt lat="43.76171" lon="3.45539">
        <ele>697.54</ele>
        <time>2014-09-04T08:05:44Z</time>
      </trkpt>
      <trkpt lat="43.76153" lon="3.45544">
        <ele>694.67</ele>
        <time>2014-09-04T08:05:58Z</time>
      </trkpt>
      <trkpt lat="43.76136" lon="3.45554">
        <ele>694.74</ele>
        <time>2014-09-04T08:06:14Z</time>
      </trkpt>
      <trkpt lat="43.76118" lon="3.45563">
        <ele>693.23</ele>
        <time>2014-09-04T08:06:29Z</time>
      </trkpt>
      <trkpt lat="43.76099" lon="3.45566">
        <ele>689.44</ele>
        <time>2014-09-04T08:06:46Z</time>
      </trkpt>
      <trkpt lat="43.76082" lon="3.45578">
        <ele>690.36</ele>
        <time>2014-09-04T08:07:02Z</time>
      </trkpt>
      <trkpt lat="43.76066" lon="3.45589">
        <ele>691.78</ele>
        <time>2014-09-04T08:07:14Z</time>
      </trkpt>
      <trkpt lat="43.76052" lon="3.45605">
        <ele>696.68</ele>
        <time>2014-09-04T08:07:28Z</time>
      </trkpt>
      <trkpt lat="43.76036" lon="3.45621">
        <ele>695.23</ele>
        <time>2014-09-04T08:07:42Z</time>
      </trkpt>
      <trkpt lat="43.76019" lon="3.45633">
        <ele>688.24</ele>
        <time>2014-09-04T08:07:56Z</time>
      </trkpt>
      <trkpt lat="43.76004" lon="3.45646">
        <ele>692.59</ele>
        <time>2014-09-04T08:08:10Z</time>
      </trkpt>
      <trkpt lat="43.75992" lon="3.45666">
        <ele>695</ele>
        <time>2014-09-04T08:08:25Z</time>
      </trkpt>
      <trkpt lat="43.75979" lon="3.45685">
        <ele>687.56</ele>
        <time>2014-09-04T08:08:39Z</time>
      </trkpt>
      <trkpt lat="43.75969" lon="3.45707">
        <ele>690.88</ele>
        <time>2014-09-04T08:08:53Z</time>
      </trkpt>
      <trkpt lat="43.75963" lon="3.45732">
        <ele>689.03</ele>
        <time>2014-09-04T08:09:06Z</time>
      </trkpt>
      <trkpt lat="43.75952" lon="3.45754">
        <ele>690.08</ele>
        <time>2014-09-04T08:09:20Z</time>
      </trkpt>
      <trkpt lat="43.75942" lon="3.45775">
        <ele>687.69</ele>
        <time>2014-09-04T08:09:34Z</time>
      </trkpt>
      <trkpt lat="43.75945" lon="3.45801">
        <ele>685.51</ele>
        <time>2014-09-04T08:09:48Z</time>
      </trkpt>
      <trkpt lat="43.75944" lon="3.45826">
        <ele>685.17</ele>
        <time>2014-09-04T08:10:03Z</time>
      </trkpt>
      <trkpt lat="43.75932" lon="3.45846">
        <ele>686.14</ele>
        <time>2014-09-04T08:10:18Z</time>
      </trkpt>
      <trkpt lat="43.75917" lon="3.45863">
        <ele>683.58</ele>
        <time>2014-09-04T08:10:33Z</time>
      </trkpt>
      <trkpt lat="43.75911" lon="3.45887">
        <ele>682.86</ele>
        <time>2014-09-04T08:10:48Z</time>
      </trkpt>
      <trkpt lat="43.75927" lon="3.459">
        <ele>683.58</ele>
        <time>2014-09-04T08:11:02Z</time>
      </trkpt>
      <trkpt lat="43.75945" lon="3.4591">
        <ele>688.74</ele>
        <time>2014-09-04T08:11:17Z</time>
      </trkpt>
      <trkpt lat="43.75947" lon="3.45936">
        <ele>688.41</ele>
        <time>2014-09-04T08:11:35Z</time>
      </trkpt>
      <trkpt lat="43.75939" lon="3.45959">
        <ele>690.11</ele>
        <time>2014-09-04T08:11:55Z</time>
      </trkpt>
      <trkpt lat="43.75922" lon="3.45968">
        <ele>684.7</ele>
        <time>2014-09-04T08:12:09Z</time>
      </trkpt>
      <trkpt lat="43.75906" lon="3.45981">
        <ele>682.7</ele>
        <time>2014-09-04T08:12:22Z</time>
      </trkpt>
      <trkpt lat="43.75893" lon="3.46">
        <ele>682.58</ele>
        <time>2014-09-04T08:12:36Z</time>
      </trkpt>
      <trkpt lat="43.75878" lon="3.46015">
        <ele>683.46</ele>
        <time>2014-09-04T08:12:51Z</time>
      </trkpt>
      <trkpt lat="43.75862" lon="3.46028">
        <ele>679.68</ele>
        <time>2014-09-04T08:13:05Z</time>
      </trkpt>
      <trkpt lat="43.75849" lon="3.46046">
        <ele>682.66</ele>
        <time>2014-09-04T08:13:20Z</time>
      </trkpt>
      <trkpt lat="43.75835" lon="3.46064">
        <ele>685.36</ele>
        <time>2014-09-04T08:13:35Z</time>
      </trkpt>
      <trkpt lat="43.75823" lon="3.46083">
        <ele>683.55</ele>
        <time>2014-09-04T08:13:50Z</time>
      </trkpt>
      <trkpt lat="43.75809" lon="3.46101">
        <ele>682.27</ele>
        <time>2014-09-04T08:14:05Z</time>
      </trkpt>
      <trkpt lat="43.75797" lon="3.46119">
        <ele>682.57</ele>
        <time>2014-09-04T08:14:19Z</time>
      </trkpt>
      <trkpt lat="43.75787" lon="3.46142">
        <ele>681.87</ele>
        <time>2014-09-04T08:14:34Z</time>
      </trkpt>
      <trkpt lat="43.75782" lon="3.46168">
        <ele>682.55</ele>
        <time>2014-09-04T08:14:49Z</time>
      </trkpt>
      <trkpt lat="43.75788" lon="3.46192">
        <ele>683.53</ele>
        <time>2014-09-04T08:15:03Z</time>
      </trkpt>
      <trkpt lat="43.75801" lon="3.46211">
        <ele>685.66</ele>
        <time>2014-09-04T08:15:17Z</time>
      </trkpt>
      <trkpt lat="43.75815" lon="3.46229">
        <ele>687.55</ele>
        <time>2014-09-04T08:15:32Z</time>
      </trkpt>
      <trkpt lat="43.75829" lon="3.46246">
        <ele>687.58</ele>
        <time>2014-09-04T08:15:48Z</time>
      </trkpt>
      <trkpt lat="43.75844" lon="3.46263">
        <ele>687.83</ele>
        <time>2014-09-04T08:16:03Z</time>
      </trkpt>
      <trkpt lat="43.75857" lon="3.46281">
        <ele>686.58</ele>
        <time>2014-09-04T08:16:18Z</time>
      </trkpt>
      <trkpt lat="43.75871" lon="3.46299">
        <ele>687.7</ele>
        <time>2014-09-04T08:16:34Z</time>
      </trkpt>
      <trkpt lat="43.75886" lon="3.46315">
        <ele>687.87</ele>
        <time>2014-09-04T08:16:50Z</time>
      </trkpt>
      <trkpt lat="43.75896" lon="3.46337">
        <ele>684.61</ele>
        <time>2014-09-04T08:17:08Z</time>
      </trkpt>
      <trkpt lat="43.75886" lon="3.46358">
        <ele>682.7</ele>
        <time>2014-09-04T08:17:23Z</time>
      </trkpt>
      <trkpt lat="43.7587" lon="3.46374">
        <ele>680.72</ele>
        <time>2014-09-04T08:17:38Z</time>
      </trkpt>
      <trkpt lat="43.75857" lon="3.46392">
        <ele>682.01</ele>
        <time>2014-09-04T08:17:53Z</time>
      </trkpt>
      <trkpt lat="43.75844" lon="3.4641">
        <ele>682.12</ele>
        <time>2014-09-04T08:18:07Z</time>
      </trkpt>
      <trkpt lat="43.75833" lon="3.46431">
        <ele>681.38</ele>
        <time>2014-09-04T08:18:24Z</time>
      </trkpt>
      <trkpt lat="43.75821" lon="3.46451">
        <ele>678.85</ele>
        <time>2014-09-04T08:18:39Z</time>
      </trkpt>
      <trkpt lat="43.75806" lon="3.46466">
        <ele>679.61</ele>
        <time>2014-09-04T08:18:53Z</time>
      </trkpt>
      <trkpt lat="43.75794" lon="3.46486">
        <ele>683.44</ele>
        <time>2014-09-04T08:19:07Z</time>
      </trkpt>
      <trkpt lat="43.75779" lon="3.465">
        <ele>682.06</ele>
        <time>2014-09-04T08:19:22Z</time>
      </trkpt>
      <trkpt lat="43.7576" lon="3.46508">
        <ele>684.03</ele>
        <time>2014-09-04T08:19:47Z</time>
      </trkpt>
      <trkpt lat="43.75753" lon="3.46531">
        <ele>683.63</ele>
        <time>2014-09-04T08:20:01Z</time>
      </trkpt>
      <trkpt lat="43.75745" lon="3.46555">
        <ele>683.83</ele>
        <time>2014-09-04T08:20:16Z</time>
      </trkpt>
      <trkpt lat="43.75734" lon="3.46576">
        <ele>685.98</ele>
        <time>2014-09-04T08:20:32Z</time>
      </trkpt>
      <trkpt lat="43.75723" lon="3.46597">
        <ele>687.57</ele>
        <time>2014-09-04T08:20:50Z</time>
      </trkpt>
      <trkpt lat="43.75707" lon="3.46608">
        <ele>681.52</ele>
        <time>2014-09-04T08:21:19Z</time>
      </trkpt>
      <trkpt lat="43.75688" lon="3.46608">
        <ele>681</ele>
        <time>2014-09-04T08:21:43Z</time>
      </trkpt>
      <trkpt lat="43.75674" lon="3.46592">
        <ele>690.39</ele>
        <time>2014-09-04T08:22:00Z</time>
      </trkpt>
      <trkpt lat="43.75656" lon="3.46581">
        <ele>688.14</ele>
        <time>2014-09-04T08:22:17Z</time>
      </trkpt>
      <trkpt lat="43.75639" lon="3.46573">
        <ele>688.7</ele>
        <time>2014-09-04T08:22:35Z</time>
      </trkpt>
      <trkpt lat="43.75622" lon="3.46565">
        <ele>689.83</ele>
        <time>2014-09-04T08:22:49Z</time>
      </trkpt>
      <trkpt lat="43.75604" lon="3.46556">
        <ele>694.34</ele>
        <time>2014-09-04T08:23:05Z</time>
      </trkpt>
      <trkpt lat="43.75586" lon="3.46555">
        <ele>699.81</ele>
        <time>2014-09-04T08:23:20Z</time>
      </trkpt>
      <trkpt lat="43.75567" lon="3.46562">
        <ele>690.8</ele>
        <time>2014-09-04T08:23:37Z</time>
      </trkpt>
      <trkpt lat="43.75549" lon="3.46564">
        <ele>691.05</ele>
        <time>2014-09-04T08:23:52Z</time>
      </trkpt>
      <trkpt lat="43.7553" lon="3.46562">
        <ele>693.91</ele>
        <time>2014-09-04T08:24:11Z</time>
      </trkpt>
      <trkpt lat="43.75512" lon="3.46568">
        <ele>692.91</ele>
        <time>2014-09-04T08:24:27Z</time>
      </trkpt>
      <trkpt lat="43.75501" lon="3.46587">
        <ele>690.43</ele>
        <time>2014-09-04T08:24:43Z</time>
      </trkpt>
      <trkpt lat="43.75485" lon="3.46602">
        <ele>693.98</ele>
        <time>2014-09-04T08:25:00Z</time>
      </trkpt>
      <trkpt lat="43.75471" lon="3.46618">
        <ele>695.26</ele>
        <time>2014-09-04T08:25:16Z</time>
      </trkpt>
      <trkpt lat="43.75458" lon="3.46638">
        <ele>696.19</ele>
        <time>2014-09-04T08:25:33Z</time>
      </trkpt>
      <trkpt lat="43.75452" lon="3.46662">
        <ele>694.81</ele>
        <time>2014-09-04T08:25:49Z</time>
      </trkpt>
      <trkpt lat="43.75448" lon="3.46688">
        <ele>697.59</ele>
        <time>2014-09-04T08:26:04Z</time>
      </trkpt>
      <trkpt lat="43.75447" lon="3.46714">
        <ele>693.85</ele>
        <time>2014-09-04T08:26:25Z</time>
      </trkpt>
      <trkpt lat="43.75429" lon="3.4672">
        <ele>690.65</ele>
        <time>2014-09-04T08:26:40Z</time>
      </trkpt>
      <trkpt lat="43.75419" lon="3.46742">
        <ele>690.07</ele>
        <time>2014-09-04T08:26:55Z</time>
      </trkpt>
      <trkpt lat="43.75414" lon="3.46767">
        <ele>691.51</ele>
        <time>2014-09-04T08:27:09Z</time>
      </trkpt>
      <trkpt lat="43.75404" lon="3.46788">
        <ele>692.15</ele>
        <time>2014-09-04T08:27:23Z</time>
      </trkpt>
      <trkpt lat="43.7539" lon="3.46805">
        <ele>692.62</ele>
        <time>2014-09-04T08:27:38Z</time>
      </trkpt>
      <trkpt lat="43.75373" lon="3.46817">
        <ele>690</ele>
        <time>2014-09-04T08:27:54Z</time>
      </trkpt>
      <trkpt lat="43.75361" lon="3.46835">
        <ele>689.45</ele>
        <time>2014-09-04T08:28:09Z</time>
      </trkpt>
      <trkpt lat="43.75354" lon="3.46858">
        <ele>688.05</ele>
        <time>2014-09-04T08:28:23Z</time>
      </trkpt>
      <trkpt lat="43.75343" lon="3.46879">
        <ele>689.27</ele>
        <time>2014-09-04T08:28:37Z</time>
      </trkpt>
      <trkpt lat="43.75332" lon="3.46901">
        <ele>689.58</ele>
        <time>2014-09-04T08:28:52Z</time>
      </trkpt>
      <trkpt lat="43.75322" lon="3.46922">
        <ele>689.56</ele>
        <time>2014-09-04T08:29:07Z</time>
      </trkpt>
      <trkpt lat="43.7531" lon="3.46943">
        <ele>688.59</ele>
        <time>2014-09-04T08:29:23Z</time>
      </trkpt>
      <trkpt lat="43.75299" lon="3.46963">
        <ele>688.58</ele>
        <time>2014-09-04T08:29:38Z</time>
      </trkpt>
      <trkpt lat="43.75295" lon="3.46989">
        <ele>689.51</ele>
        <time>2014-09-04T08:29:52Z</time>
      </trkpt>
      <trkpt lat="43.7529" lon="3.47014">
        <ele>687.82</ele>
        <time>2014-09-04T08:30:08Z</time>
      </trkpt>
      <trkpt lat="43.75285" lon="3.47038">
        <ele>686.59</ele>
        <time>2014-09-04T08:30:23Z</time>
      </trkpt>
      <trkpt lat="43.75283" lon="3.47063">
        <ele>685.54</ele>
        <time>2014-09-04T08:30:37Z</time>
      </trkpt>
      <trkpt lat="43.75278" lon="3.47088">
        <ele>686.57</ele>
        <time>2014-09-04T08:30:51Z</time>
      </trkpt>
      <trkpt lat="43.75274" lon="3.47113">
        <ele>686.6</ele>
        <time>2014-09-04T08:31:06Z</time>
      </trkpt>
      <trkpt lat="43.75269" lon="3.47138">
        <ele>686.57</ele>
        <time>2014-09-04T08:31:20Z</time>
      </trkpt>
      <trkpt lat="43.75268" lon="3.47163">
        <ele>687.05</ele>
        <time>2014-09-04T08:31:35Z</time>
      </trkpt>
      <trkpt lat="43.75263" lon="3.47188">
        <ele>685.81</ele>
        <time>2014-09-04T08:31:50Z</time>
      </trkpt>
      <trkpt lat="43.75261" lon="3.47214">
        <ele>683.58</ele>
        <time>2014-09-04T08:32:05Z</time>
      </trkpt>
      <trkpt lat="43.75261" lon="3.4724">
        <ele>682.58</ele>
        <time>2014-09-04T08:32:20Z</time>
      </trkpt>
      <trkpt lat="43.75263" lon="3.47266">
        <ele>682.36</ele>
        <time>2014-09-04T08:32:34Z</time>
      </trkpt>
      <trkpt lat="43.75263" lon="3.47292">
        <ele>684.21</ele>
        <time>2014-09-04T08:32:49Z</time>
      </trkpt>
      <trkpt lat="43.75264" lon="3.47318">
        <ele>681.59</ele>
        <time>2014-09-04T08:33:04Z</time>
      </trkpt>
      <trkpt lat="43.75261" lon="3.47343">
        <ele>681.32</ele>
        <time>2014-09-04T08:33:18Z</time>
      </trkpt>
      <trkpt lat="43.75261" lon="3.47369">
        <ele>680.8</ele>
        <time>2014-09-04T08:33:32Z</time>
      </trkpt>
      <trkpt lat="43.75262" lon="3.47395">
        <ele>680.41</ele>
        <time>2014-09-04T08:33:47Z</time>
      </trkpt>
      <trkpt lat="43.75261" lon="3.47421">
        <ele>683.07</ele>
        <time>2014-09-04T08:34:02Z</time>
      </trkpt>
      <trkpt lat="43.75261" lon="3.47447">
        <ele>683.54</ele>
        <time>2014-09-04T08:34:17Z</time>
      </trkpt>
      <trkpt lat="43.75262" lon="3.47472">
        <ele>683.55</ele>
        <time>2014-09-04T08:34:31Z</time>
      </trkpt>
      <trkpt lat="43.75264" lon="3.47498">
        <ele>683.08</ele>
        <time>2014-09-04T08:34:46Z</time>
      </trkpt>
      <trkpt lat="43.75269" lon="3.47522">
        <ele>679.83</ele>
        <time>2014-09-04T08:35:00Z</time>
      </trkpt>
      <trkpt lat="43.75271" lon="3.47548">
        <ele>678.31</ele>
        <time>2014-09-04T08:35:15Z</time>
      </trkpt>
      <trkpt lat="43.75272" lon="3.47574">
        <ele>676.7</ele>
        <time>2014-09-04T08:35:29Z</time>
      </trkpt>
      <trkpt lat="43.75271" lon="3.47599">
        <ele>676.02</ele>
        <time>2014-09-04T08:35:44Z</time>
      </trkpt>
      <trkpt lat="43.7527" lon="3.47624">
        <ele>676.67</ele>
        <time>2014-09-04T08:35:59Z</time>
      </trkpt>
      <trkpt lat="43.75271" lon="3.4765">
        <ele>676.33</ele>
        <time>2014-09-04T08:36:15Z</time>
      </trkpt>
      <trkpt lat="43.75273" lon="3.47675">
        <ele>675.58</ele>
        <time>2014-09-04T08:36:30Z</time>
      </trkpt>
      <trkpt lat="43.75278" lon="3.477">
        <ele>675.24</ele>
        <time>2014-09-04T08:36:44Z</time>
      </trkpt>
      <trkpt lat="43.75279" lon="3.47726">
        <ele>677.88</ele>
        <time>2014-09-04T08:36:58Z</time>
      </trkpt>
      <trkpt lat="43.7528" lon="3.47752">
        <ele>679.75</ele>
        <time>2014-09-04T08:37:12Z</time>
      </trkpt>
      <trkpt lat="43.75285" lon="3.47776">
        <ele>675.49</ele>
        <time>2014-09-04T08:37:26Z</time>
      </trkpt>
      <trkpt lat="43.7529" lon="3.478">
        <ele>675.17</ele>
        <time>2014-09-04T08:37:39Z</time>
      </trkpt>
      <trkpt lat="43.75297" lon="3.47824">
        <ele>674.99</ele>
        <time>2014-09-04T08:37:53Z</time>
      </trkpt>
      <trkpt lat="43.75301" lon="3.47849">
        <ele>672.95</ele>
        <time>2014-09-04T08:38:07Z</time>
      </trkpt>
      <trkpt lat="43.75293" lon="3.47872">
        <ele>674.23</ele>
        <time>2014-09-04T08:38:21Z</time>
      </trkpt>
      <trkpt lat="43.75291" lon="3.47897">
        <ele>674.58</ele>
        <time>2014-09-04T08:38:36Z</time>
      </trkpt>
      <trkpt lat="43.75282" lon="3.47921">
        <ele>678.43</ele>
        <time>2014-09-04T08:38:51Z</time>
      </trkpt>
      <trkpt lat="43.75267" lon="3.47937">
        <ele>682.51</ele>
        <time>2014-09-04T08:39:07Z</time>
      </trkpt>
      <trkpt lat="43.75256" lon="3.47957">
        <ele>685.93</ele>
        <time>2014-09-04T08:39:25Z</time>
      </trkpt>
      <trkpt lat="43.75249" lon="3.47981">
        <ele>687.98</ele>
        <time>2014-09-04T08:39:48Z</time>
      </trkpt>
      <trkpt lat="43.75231" lon="3.47983">
        <ele>687.02</ele>
        <time>2014-09-04T08:40:05Z</time>
      </trkpt>
      <trkpt lat="43.75214" lon="3.47991">
        <ele>691.22</ele>
        <time>2014-09-04T08:40:20Z</time>
      </trkpt>
      <trkpt lat="43.75198" lon="3.48003">
        <ele>694.48</ele>
        <time>2014-09-04T08:40:35Z</time>
      </trkpt>
      <trkpt lat="43.75183" lon="3.48019">
        <ele>692.59</ele>
        <time>2014-09-04T08:40:51Z</time>
      </trkpt>
      <trkpt lat="43.75165" lon="3.48027">
        <ele>693.58</ele>
        <time>2014-09-04T08:41:07Z</time>
      </trkpt>
      <trkpt lat="43.75147" lon="3.48027">
        <ele>694.39</ele>
        <time>2014-09-04T08:41:22Z</time>
      </trkpt>
      <trkpt lat="43.75129" lon="3.48033">
        <ele>694.32</ele>
        <time>2014-09-04T08:41:36Z</time>
      </trkpt>
      <trkpt lat="43.75117" lon="3.48053">
        <ele>691.66</ele>
        <time>2014-09-04T08:41:51Z</time>
      </trkpt>
      <trkpt lat="43.75101" lon="3.48069">
        <ele>693.22</ele>
        <time>2014-09-04T08:42:06Z</time>
      </trkpt>
      <trkpt lat="43.75092" lon="3.4809">
        <ele>693.51</ele>
        <time>2014-09-04T08:42:21Z</time>
      </trkpt>
      <trkpt lat="43.75079" lon="3.48109">
        <ele>693.75</ele>
        <time>2014-09-04T08:42:37Z</time>
      </trkpt>
      <trkpt lat="43.75065" lon="3.48125">
        <ele>695.58</ele>
        <time>2014-09-04T08:42:52Z</time>
      </trkpt>
      <trkpt lat="43.75051" lon="3.48144">
        <ele>693.13</ele>
        <time>2014-09-04T08:43:08Z</time>
      </trkpt>
      <trkpt lat="43.75037" lon="3.48161">
        <ele>690.55</ele>
        <time>2014-09-04T08:43:24Z</time>
      </trkpt>
      <trkpt lat="43.75021" lon="3.48174">
        <ele>694.75</ele>
        <time>2014-09-04T08:43:39Z</time>
      </trkpt>
      <trkpt lat="43.75005" lon="3.48188">
        <ele>696.6</ele>
        <time>2014-09-04T08:43:55Z</time>
      </trkpt>
      <trkpt lat="43.7499" lon="3.48203">
        <ele>698.54</ele>
        <time>2014-09-04T08:44:10Z</time>
      </trkpt>
      <trkpt lat="43.74975" lon="3.48217">
        <ele>701.45</ele>
        <time>2014-09-04T08:44:26Z</time>
      </trkpt>
      <trkpt lat="43.74966" lon="3.48239">
        <ele>700.93</ele>
        <time>2014-09-04T08:44:47Z</time>
      </trkpt>
      <trkpt lat="43.74952" lon="3.48256">
        <ele>699.08</ele>
        <time>2014-09-04T08:45:07Z</time>
      </trkpt>
      <trkpt lat="43.7494" lon="3.48275">
        <ele>702.82</ele>
        <time>2014-09-04T08:45:27Z</time>
      </trkpt>
      <trkpt lat="43.74925" lon="3.4829">
        <ele>704.29</ele>
        <time>2014-09-04T08:45:52Z</time>
      </trkpt>
      <trkpt lat="43.74911" lon="3.48305">
        <ele>711.66</ele>
        <time>2014-09-04T08:48:01Z</time>
      </trkpt>
      <trkpt lat="43.74897" lon="3.4832">
        <ele>711.95</ele>
        <time>2014-09-04T08:48:33Z</time>
      </trkpt>
      <trkpt lat="43.74882" lon="3.48336">
        <ele>713.9</ele>
        <time>2014-09-04T08:48:58Z</time>
      </trkpt>
      <trkpt lat="43.74867" lon="3.4835">
        <ele>717.6</ele>
        <time>2014-09-04T08:49:20Z</time>
      </trkpt>
      <trkpt lat="43.74854" lon="3.48367">
        <ele>721.92</ele>
        <time>2014-09-04T08:49:42Z</time>
      </trkpt>
      <trkpt lat="43.74839" lon="3.48383">
        <ele>727.78</ele>
        <time>2014-09-04T08:50:04Z</time>
      </trkpt>
      <trkpt lat="43.74822" lon="3.48393">
        <ele>728.07</ele>
        <time>2014-09-04T08:50:29Z</time>
      </trkpt>
      <trkpt lat="43.74806" lon="3.48406">
        <ele>734.23</ele>
        <time>2014-09-04T08:50:53Z</time>
      </trkpt>
      <trkpt lat="43.74788" lon="3.48412">
        <ele>738.94</ele>
        <time>2014-09-04T08:51:23Z</time>
      </trkpt>
      <trkpt lat="43.7477" lon="3.48407">
        <ele>743.84</ele>
        <time>2014-09-04T08:51:49Z</time>
      </trkpt>
      <trkpt lat="43.74752" lon="3.48408">
        <ele>741.15</ele>
        <time>2014-09-04T08:52:11Z</time>
      </trkpt>
      <trkpt lat="43.74734" lon="3.48415">
        <ele>740.73</ele>
        <time>2014-09-04T08:52:31Z</time>
      </trkpt>
      <trkpt lat="43.74718" lon="3.48425">
        <ele>748.22</ele>
        <time>2014-09-04T08:52:52Z</time>
      </trkpt>
      <trkpt lat="43.74702" lon="3.48437">
        <ele>749.91</ele>
        <time>2014-09-04T08:53:17Z</time>
      </trkpt>
      <trkpt lat="43.74687" lon="3.48453">
        <ele>758.9</ele>
        <time>2014-09-04T08:53:52Z</time>
      </trkpt>
      <trkpt lat="43.7467" lon="3.48463">
        <ele>761.59</ele>
        <time>2014-09-04T08:54:26Z</time>
      </trkpt>
      <trkpt lat="43.74663" lon="3.48486">
        <ele>768.61</ele>
        <time>2014-09-04T08:55:00Z</time>
      </trkpt>
      <trkpt lat="43.74654" lon="3.48508">
        <ele>775.08</ele>
        <time>2014-09-04T08:55:42Z</time>
      </trkpt>
      <trkpt lat="43.74636" lon="3.48508">
        <ele>777.62</ele>
        <time>2014-09-04T08:56:12Z</time>
      </trkpt>
      <trkpt lat="43.74619" lon="3.48516">
        <ele>784.45</ele>
        <time>2014-09-04T08:56:49Z</time>
      </trkpt>
      <trkpt lat="43.74603" lon="3.48529">
        <ele>792.54</ele>
        <time>2014-09-04T08:57:18Z</time>
      </trkpt>
      <trkpt lat="43.74585" lon="3.48525">
        <ele>795.17</ele>
        <time>2014-09-04T08:57:39Z</time>
      </trkpt>
      <trkpt lat="43.74567" lon="3.48521">
        <ele>801.88</ele>
        <time>2014-09-04T08:58:01Z</time>
      </trkpt>
      <trkpt lat="43.74549" lon="3.48524">
        <ele>804.33</ele>
        <time>2014-09-04T08:58:29Z</time>
      </trkpt>
      <trkpt lat="43.74556" lon="3.48546">
        <ele>804.74</ele>
        <time>2014-09-04T08:58:53Z</time>
      </trkpt>
      <trkpt lat="43.7454" lon="3.48558">
        <ele>807.64</ele>
        <time>2014-09-04T08:59:19Z</time>
      </trkpt>
      <trkpt lat="43.74522" lon="3.48549">
        <ele>806.66</ele>
        <time>2014-09-04T08:59:35Z</time>
      </trkpt>
      <trkpt lat="43.74506" lon="3.48537">
        <ele>812.02</ele>
        <time>2014-09-04T08:59:54Z</time>
      </trkpt>
      <trkpt lat="43.74489" lon="3.48528">
        <ele>813.44</ele>
        <time>2014-09-04T09:00:09Z</time>
      </trkpt>
      <trkpt lat="43.7447" lon="3.48527">
        <ele>813.31</ele>
        <time>2014-09-04T09:00:27Z</time>
      </trkpt>
      <trkpt lat="43.74457" lon="3.48544">
        <ele>814.63</ele>
        <time>2014-09-04T09:00:44Z</time>
      </trkpt>
      <trkpt lat="43.74444" lon="3.48563">
        <ele>814.53</ele>
        <time>2014-09-04T09:01:00Z</time>
      </trkpt>
      <trkpt lat="43.74427" lon="3.48571">
        <ele>818.32</ele>
        <time>2014-09-04T09:01:23Z</time>
      </trkpt>
      <trkpt lat="43.74408" lon="3.48574">
        <ele>821.21</ele>
        <time>2014-09-04T09:02:02Z</time>
      </trkpt>
      <trkpt lat="43.74389" lon="3.48572">
        <ele>825.19</ele>
        <time>2014-09-04T09:02:24Z</time>
      </trkpt>
      <trkpt lat="43.74372" lon="3.48579">
        <ele>830.53</ele>
        <time>2014-09-04T09:02:46Z</time>
      </trkpt>
      <trkpt lat="43.74356" lon="3.48591">
        <ele>835.93</ele>
        <time>2014-09-04T09:03:07Z</time>
      </trkpt>
      <trkpt lat="43.74338" lon="3.48598">
        <ele>839.4</ele>
        <time>2014-09-04T09:03:21Z</time>
      </trkpt>
      <trkpt lat="43.74319" lon="3.48602">
        <ele>841.2</ele>
        <time>2014-09-04T09:03:38Z</time>
      </trkpt>
      <trkpt lat="43.74302" lon="3.48611">
        <ele>841.7</ele>
        <time>2014-09-04T09:04:07Z</time>
      </trkpt>
      <trkpt lat="43.74285" lon="3.48622">
        <ele>837.34</ele>
        <time>2014-09-04T09:04:32Z</time>
      </trkpt>
      <trkpt lat="43.74266" lon="3.48617">
        <ele>843.56</ele>
        <time>2014-09-04T09:05:41Z</time>
      </trkpt>
      <trkpt lat="43.74252" lon="3.48602">
        <ele>841.7</ele>
        <time>2014-09-04T09:06:27Z</time>
      </trkpt>
      <trkpt lat="43.74234" lon="3.48596">
        <ele>843.76</ele>
        <time>2014-09-04T09:06:48Z</time>
      </trkpt>
      <trkpt lat="43.74224" lon="3.48575">
        <ele>848.8</ele>
        <time>2014-09-04T09:17:34Z</time>
      </trkpt>
      <trkpt lat="43.74233" lon="3.48553">
        <ele>841.64</ele>
        <time>2014-09-04T09:18:04Z</time>
      </trkpt>
      <trkpt lat="43.74235" lon="3.48528">
        <ele>836.58</ele>
        <time>2014-09-04T09:18:41Z</time>
      </trkpt>
      <trkpt lat="43.74246" lon="3.48508">
        <ele>833.84</ele>
        <time>2014-09-04T09:19:00Z</time>
      </trkpt>
      <trkpt lat="43.74251" lon="3.48483">
        <ele>824.99</ele>
        <time>2014-09-04T09:20:36Z</time>
      </trkpt>
      <trkpt lat="43.74241" lon="3.48461">
        <ele>824.69</ele>
        <time>2014-09-04T09:20:54Z</time>
      </trkpt>
      <trkpt lat="43.74226" lon="3.48447">
        <ele>820.51</ele>
        <time>2014-09-04T09:21:47Z</time>
      </trkpt>
      <trkpt lat="43.74208" lon="3.48448">
        <ele>825.6</ele>
        <time>2014-09-04T09:22:16Z</time>
      </trkpt>
      <trkpt lat="43.74189" lon="3.4845">
        <ele>823.73</ele>
        <time>2014-09-04T09:22:40Z</time>
      </trkpt>
      <trkpt lat="43.74175" lon="3.48434">
        <ele>821.86</ele>
        <time>2014-09-04T09:23:42Z</time>
      </trkpt>
      <trkpt lat="43.7416" lon="3.48422">
        <ele>816.1</ele>
        <time>2014-09-04T09:24:05Z</time>
      </trkpt>
      <trkpt lat="43.74148" lon="3.48403">
        <ele>808.68</ele>
        <time>2014-09-04T09:25:05Z</time>
      </trkpt>
      <trkpt lat="43.74134" lon="3.48385">
        <ele>801.93</ele>
        <time>2014-09-04T09:25:23Z</time>
      </trkpt>
      <trkpt lat="43.74118" lon="3.48371">
        <ele>798.47</ele>
        <time>2014-09-04T09:25:39Z</time>
      </trkpt>
      <trkpt lat="43.74102" lon="3.48361">
        <ele>797.42</ele>
        <time>2014-09-04T09:28:49Z</time>
      </trkpt>
      <trkpt lat="43.74089" lon="3.48342">
        <ele>787.71</ele>
        <time>2014-09-04T09:29:18Z</time>
      </trkpt>
      <trkpt lat="43.74073" lon="3.48331">
        <ele>784.77</ele>
        <time>2014-09-04T09:29:37Z</time>
      </trkpt>
      <trkpt lat="43.7406" lon="3.48312">
        <ele>775.89</ele>
        <time>2014-09-04T09:29:53Z</time>
      </trkpt>
      <trkpt lat="43.74048" lon="3.48294">
        <ele>772.86</ele>
        <time>2014-09-04T09:30:14Z</time>
      </trkpt>
      <trkpt lat="43.74034" lon="3.48276">
        <ele>768.37</ele>
        <time>2014-09-04T09:30:34Z</time>
      </trkpt>
      <trkpt lat="43.7403" lon="3.48251">
        <ele>767.3</ele>
        <time>2014-09-04T09:30:58Z</time>
      </trkpt>
      <trkpt lat="43.74038" lon="3.48228">
        <ele>762.36</ele>
        <time>2014-09-04T09:31:29Z</time>
      </trkpt>
      <trkpt lat="43.74055" lon="3.48239">
        <ele>746.87</ele>
        <time>2014-09-04T09:31:44Z</time>
      </trkpt>
      <trkpt lat="43.7407" lon="3.48253">
        <ele>741.7</ele>
        <time>2014-09-04T09:32:00Z</time>
      </trkpt>
      <trkpt lat="43.74087" lon="3.48264">
        <ele>716.24</ele>
        <time>2014-09-04T09:32:14Z</time>
      </trkpt>
      <trkpt lat="43.74104" lon="3.48273">
        <ele>737.12</ele>
        <time>2014-09-04T09:32:28Z</time>
      </trkpt>
      <trkpt lat="43.74121" lon="3.48284">
        <ele>688.83</ele>
        <time>2014-09-04T09:32:42Z</time>
      </trkpt>
      <trkpt lat="43.74139" lon="3.48288">
        <ele>720.06</ele>
        <time>2014-09-04T09:32:56Z</time>
      </trkpt>
      <trkpt lat="43.74157" lon="3.48297">
        <ele>711.53</ele>
        <time>2014-09-04T09:33:15Z</time>
      </trkpt>
      <trkpt lat="43.74176" lon="3.483">
        <ele>684.37</ele>
        <time>2014-09-04T09:33:33Z</time>
      </trkpt>
      <trkpt lat="43.74194" lon="3.48306">
        <ele>711.8</ele>
        <time>2014-09-04T09:33:48Z</time>
      </trkpt>
      <trkpt lat="43.74212" lon="3.48312">
        <ele>705.52</ele>
        <time>2014-09-04T09:34:06Z</time>
      </trkpt>
      <trkpt lat="43.74231" lon="3.48309">
        <ele>663.73</ele>
        <time>2014-09-04T09:34:22Z</time>
      </trkpt>
      <trkpt lat="43.74249" lon="3.48312">
        <ele>656.63</ele>
        <time>2014-09-04T09:34:41Z</time>
      </trkpt>
      <trkpt lat="43.74267" lon="3.48306">
        <ele>696.03</ele>
        <time>2014-09-04T09:34:56Z</time>
      </trkpt>
      <trkpt lat="43.74286" lon="3.48309">
        <ele>719.05</ele>
        <time>2014-09-04T09:35:19Z</time>
      </trkpt>
      <trkpt lat="43.74305" lon="3.48316">
        <ele>700.76</ele>
        <time>2014-09-04T09:35:39Z</time>
      </trkpt>
      <trkpt lat="43.74322" lon="3.48326">
        <ele>696.48</ele>
        <time>2014-09-04T09:36:01Z</time>
      </trkpt>
      <trkpt lat="43.74335" lon="3.48345">
        <ele>709.39</ele>
        <time>2014-09-04T09:36:19Z</time>
      </trkpt>
      <trkpt lat="43.7435" lon="3.4836">
        <ele>686.08</ele>
        <time>2014-09-04T09:36:36Z</time>
      </trkpt>
      <trkpt lat="43.74357" lon="3.48384">
        <ele>638.67</ele>
        <time>2014-09-04T09:36:57Z</time>
      </trkpt>
      <trkpt lat="43.74356" lon="3.4841">
        <ele>591.35</ele>
        <time>2014-09-04T09:37:12Z</time>
      </trkpt>
      <trkpt lat="43.74373" lon="3.48417">
        <ele>686.51</ele>
        <time>2014-09-04T09:37:29Z</time>
      </trkpt>
      <trkpt lat="43.74386" lon="3.48398">
        <ele>646.47</ele>
        <time>2014-09-04T09:37:53Z</time>
      </trkpt>
      <trkpt lat="43.74402" lon="3.48384">
        <ele>664.22</ele>
        <time>2014-09-04T09:38:13Z</time>
      </trkpt>
      <trkpt lat="43.74417" lon="3.4837">
        <ele>684.45</ele>
        <time>2014-09-04T09:38:34Z</time>
      </trkpt>
      <trkpt lat="43.74433" lon="3.48356">
        <ele>674.46</ele>
        <time>2014-09-04T09:38:54Z</time>
      </trkpt>
      <trkpt lat="43.74443" lon="3.48335">
        <ele>644.37</ele>
        <time>2014-09-04T09:39:12Z</time>
      </trkpt>
      <trkpt lat="43.74457" lon="3.48319">
        <ele>632.61</ele>
        <time>2014-09-04T09:39:34Z</time>
      </trkpt>
      <trkpt lat="43.74471" lon="3.48302">
        <ele>616.22</ele>
        <time>2014-09-04T09:39:54Z</time>
      </trkpt>
      <trkpt lat="43.74478" lon="3.48278">
        <ele>709.14</ele>
        <time>2014-09-04T09:40:10Z</time>
      </trkpt>
      <trkpt lat="43.7449" lon="3.48259">
        <ele>708.25</ele>
        <time>2014-09-04T09:40:29Z</time>
      </trkpt>
      <trkpt lat="43.74504" lon="3.48241">
        <ele>683.18</ele>
        <time>2014-09-04T09:40:45Z</time>
      </trkpt>
      <trkpt lat="43.74522" lon="3.48236">
        <ele>733.46</ele>
        <time>2014-09-04T09:41:00Z</time>
      </trkpt>
      <trkpt lat="43.74541" lon="3.48232">
        <ele>716.14</ele>
        <time>2014-09-04T09:41:14Z</time>
      </trkpt>
      <trkpt lat="43.74559" lon="3.48233">
        <ele>724.62</ele>
        <time>2014-09-04T09:41:28Z</time>
      </trkpt>
      <trkpt lat="43.74576" lon="3.48245">
        <ele>700.63</ele>
        <time>2014-09-04T09:41:44Z</time>
      </trkpt>
      <trkpt lat="43.74582" lon="3.48269">
        <ele>711.21</ele>
        <time>2014-09-04T09:41:58Z</time>
      </trkpt>
      <trkpt lat="43.74591" lon="3.48291">
        <ele>685.89</ele>
        <time>2014-09-04T09:42:14Z</time>
      </trkpt>
      <trkpt lat="43.74603" lon="3.48313">
        <ele>716.89</ele>
        <time>2014-09-04T09:42:39Z</time>
      </trkpt>
      <trkpt lat="43.74619" lon="3.48323">
        <ele>658.54</ele>
        <time>2014-09-04T09:42:52Z</time>
      </trkpt>
      <trkpt lat="43.74638" lon="3.48331">
        <ele>646.49</ele>
        <time>2014-09-04T09:43:11Z</time>
      </trkpt>
      <trkpt lat="43.74657" lon="3.48332">
        <ele>703.98</ele>
        <time>2014-09-04T09:43:28Z</time>
      </trkpt>
      <trkpt lat="43.74675" lon="3.48332">
        <ele>729.51</ele>
        <time>2014-09-04T09:43:44Z</time>
      </trkpt>
      <trkpt lat="43.74691" lon="3.48344">
        <ele>730.12</ele>
        <time>2014-09-04T09:44:00Z</time>
      </trkpt>
      <trkpt lat="43.74707" lon="3.48353">
        <ele>726.25</ele>
        <time>2014-09-04T09:44:26Z</time>
      </trkpt>
      <trkpt lat="43.74725" lon="3.48344">
        <ele>732.85</ele>
        <time>2014-09-04T09:44:41Z</time>
      </trkpt>
      <trkpt lat="43.74743" lon="3.48336">
        <ele>730.91</ele>
        <time>2014-09-04T09:44:57Z</time>
      </trkpt>
      <trkpt lat="43.74756" lon="3.48317">
        <ele>731.77</ele>
        <time>2014-09-04T09:45:17Z</time>
      </trkpt>
      <trkpt lat="43.74772" lon="3.48303">
        <ele>725.74</ele>
        <time>2014-09-04T09:45:32Z</time>
      </trkpt>
      <trkpt lat="43.74787" lon="3.48287">
        <ele>726.96</ele>
        <time>2014-09-04T09:45:49Z</time>
      </trkpt>
      <trkpt lat="43.748" lon="3.48269">
        <ele>719.09</ele>
        <time>2014-09-04T09:46:10Z</time>
      </trkpt>
      <trkpt lat="43.74816" lon="3.48258">
        <ele>718.81</ele>
        <time>2014-09-04T09:46:28Z</time>
      </trkpt>
      <trkpt lat="43.7483" lon="3.48242">
        <ele>714.58</ele>
        <time>2014-09-04T09:46:44Z</time>
      </trkpt>
      <trkpt lat="43.74846" lon="3.48229">
        <ele>712.14</ele>
        <time>2014-09-04T09:47:01Z</time>
      </trkpt>
      <trkpt lat="43.74864" lon="3.48226">
        <ele>712.61</ele>
        <time>2014-09-04T09:47:17Z</time>
      </trkpt>
      <trkpt lat="43.74882" lon="3.48219">
        <ele>709.83</ele>
        <time>2014-09-04T09:47:32Z</time>
      </trkpt>
      <trkpt lat="43.74901" lon="3.4822">
        <ele>707.25</ele>
        <time>2014-09-04T09:47:49Z</time>
      </trkpt>
      <trkpt lat="43.74918" lon="3.48209">
        <ele>704.59</ele>
        <time>2014-09-04T09:48:04Z</time>
      </trkpt>
      <trkpt lat="43.74935" lon="3.48199">
        <ele>709.31</ele>
        <time>2014-09-04T09:48:20Z</time>
      </trkpt>
      <trkpt lat="43.74952" lon="3.48192">
        <ele>704.03</ele>
        <time>2014-09-04T09:48:44Z</time>
      </trkpt>
      <trkpt lat="43.74969" lon="3.48179">
        <ele>705.31</ele>
        <time>2014-09-04T09:49:07Z</time>
      </trkpt>
      <trkpt lat="43.74987" lon="3.48178">
        <ele>704.26</ele>
        <time>2014-09-04T09:49:25Z</time>
      </trkpt>
      <trkpt lat="43.75005" lon="3.48173">
        <ele>703.64</ele>
        <time>2014-09-04T09:49:42Z</time>
      </trkpt>
      <trkpt lat="43.75023" lon="3.4817">
        <ele>700.13</ele>
        <time>2014-09-04T09:50:03Z</time>
      </trkpt>
      <trkpt lat="43.75036" lon="3.48151">
        <ele>696.64</ele>
        <time>2014-09-04T09:50:23Z</time>
      </trkpt>
      <trkpt lat="43.75052" lon="3.48138">
        <ele>699.05</ele>
        <time>2014-09-04T09:50:42Z</time>
      </trkpt>
      <trkpt lat="43.75065" lon="3.48118">
        <ele>697.16</ele>
        <time>2014-09-04T09:51:03Z</time>
      </trkpt>
      <trkpt lat="43.75079" lon="3.48103">
        <ele>694.27</ele>
        <time>2014-09-04T09:51:22Z</time>
      </trkpt>
      <trkpt lat="43.75089" lon="3.48081">
        <ele>699.08</ele>
        <time>2014-09-04T09:51:42Z</time>
      </trkpt>
      <trkpt lat="43.75104" lon="3.48061">
        <ele>697.82</ele>
        <time>2014-09-04T09:52:02Z</time>
      </trkpt>
      <trkpt lat="43.75117" lon="3.48044">
        <ele>699.08</ele>
        <time>2014-09-04T09:52:18Z</time>
      </trkpt>
      <trkpt lat="43.75134" lon="3.48034">
        <ele>700.94</ele>
        <time>2014-09-04T09:52:37Z</time>
      </trkpt>
      <trkpt lat="43.75152" lon="3.48039">
        <ele>700.81</ele>
        <time>2014-09-04T09:52:54Z</time>
      </trkpt>
      <trkpt lat="43.75166" lon="3.48054">
        <ele>692.44</ele>
        <time>2014-09-04T09:53:54Z</time>
      </trkpt>
      <trkpt lat="43.7516" lon="3.48031">
        <ele>688.14</ele>
        <time>2014-09-04T10:25:47Z</time>
      </trkpt>
      <trkpt lat="43.75166" lon="3.48054">
        <ele>689.44</ele>
        <time>2014-09-04T10:40:16Z</time>
      </trkpt>
      <trkpt lat="43.75173" lon="3.4803">
        <ele>689.83</ele>
        <time>2014-09-04T10:52:17Z</time>
      </trkpt>
      <trkpt lat="43.75188" lon="3.48014">
        <ele>689.64</ele>
        <time>2014-09-04T10:52:37Z</time>
      </trkpt>
      <trkpt lat="43.75203" lon="3.47999">
        <ele>687.58</ele>
        <time>2014-09-04T10:52:54Z</time>
      </trkpt>
      <trkpt lat="43.75219" lon="3.47986">
        <ele>685.58</ele>
        <time>2014-09-04T10:53:14Z</time>
      </trkpt>
      <trkpt lat="43.75237" lon="3.47978">
        <ele>684.57</ele>
        <time>2014-09-04T10:53:31Z</time>
      </trkpt>
      <trkpt lat="43.75255" lon="3.47972">
        <ele>683.14</ele>
        <time>2014-09-04T10:53:49Z</time>
      </trkpt>
      <trkpt lat="43.75263" lon="3.47949">
        <ele>680.84</ele>
        <time>2014-09-04T10:54:08Z</time>
      </trkpt>
      <trkpt lat="43.75275" lon="3.47931">
        <ele>679.04</ele>
        <time>2014-09-04T10:54:25Z</time>
      </trkpt>
      <trkpt lat="43.75288" lon="3.47912">
        <ele>678.08</ele>
        <time>2014-09-04T10:54:41Z</time>
      </trkpt>
      <trkpt lat="43.75293" lon="3.47887">
        <ele>676.6</ele>
        <time>2014-09-04T10:54:56Z</time>
      </trkpt>
      <trkpt lat="43.75298" lon="3.47862">
        <ele>675.46</ele>
        <time>2014-09-04T10:55:13Z</time>
      </trkpt>
      <trkpt lat="43.75302" lon="3.47838">
        <ele>674.55</ele>
        <time>2014-09-04T10:55:29Z</time>
      </trkpt>
      <trkpt lat="43.75297" lon="3.47814">
        <ele>675.57</ele>
        <time>2014-09-04T10:55:46Z</time>
      </trkpt>
      <trkpt lat="43.7529" lon="3.47789">
        <ele>676.57</ele>
        <time>2014-09-04T10:56:04Z</time>
      </trkpt>
      <trkpt lat="43.75284" lon="3.47765">
        <ele>676.61</ele>
        <time>2014-09-04T10:56:25Z</time>
      </trkpt>
      <trkpt lat="43.7528" lon="3.4774">
        <ele>673.14</ele>
        <time>2014-09-04T10:56:43Z</time>
      </trkpt>
      <trkpt lat="43.75276" lon="3.47715">
        <ele>673.98</ele>
        <time>2014-09-04T10:57:02Z</time>
      </trkpt>
      <trkpt lat="43.75273" lon="3.47689">
        <ele>671.5</ele>
        <time>2014-09-04T10:57:20Z</time>
      </trkpt>
      <trkpt lat="43.75272" lon="3.47663">
        <ele>674.88</ele>
        <time>2014-09-04T10:57:33Z</time>
      </trkpt>
      <trkpt lat="43.75269" lon="3.47637">
        <ele>676.64</ele>
        <time>2014-09-04T10:57:51Z</time>
      </trkpt>
      <trkpt lat="43.7527" lon="3.47612">
        <ele>671.86</ele>
        <time>2014-09-04T10:58:08Z</time>
      </trkpt>
      <trkpt lat="43.7527" lon="3.47587">
        <ele>672.95</ele>
        <time>2014-09-04T10:58:23Z</time>
      </trkpt>
      <trkpt lat="43.75272" lon="3.47561">
        <ele>673.65</ele>
        <time>2014-09-04T10:58:40Z</time>
      </trkpt>
      <trkpt lat="43.75271" lon="3.47535">
        <ele>673.37</ele>
        <time>2014-09-04T10:58:58Z</time>
      </trkpt>
      <trkpt lat="43.75266" lon="3.47509">
        <ele>671.27</ele>
        <time>2014-09-04T10:59:16Z</time>
      </trkpt>
      <trkpt lat="43.75264" lon="3.47485">
        <ele>671.25</ele>
        <time>2014-09-04T10:59:35Z</time>
      </trkpt>
      <trkpt lat="43.75263" lon="3.47459">
        <ele>669.58</ele>
        <time>2014-09-04T10:59:53Z</time>
      </trkpt>
      <trkpt lat="43.75265" lon="3.47432">
        <ele>671.89</ele>
        <time>2014-09-04T11:00:11Z</time>
      </trkpt>
      <trkpt lat="43.75264" lon="3.47407">
        <ele>673.79</ele>
        <time>2014-09-04T11:00:25Z</time>
      </trkpt>
      <trkpt lat="43.75264" lon="3.47381">
        <ele>672.89</ele>
        <time>2014-09-04T11:00:39Z</time>
      </trkpt>
      <trkpt lat="43.75263" lon="3.47356">
        <ele>677.33</ele>
        <time>2014-09-04T11:00:53Z</time>
      </trkpt>
      <trkpt lat="43.75263" lon="3.4733">
        <ele>678.95</ele>
        <time>2014-09-04T11:01:09Z</time>
      </trkpt>
      <trkpt lat="43.75263" lon="3.47304">
        <ele>681.27</ele>
        <time>2014-09-04T11:01:25Z</time>
      </trkpt>
      <trkpt lat="43.75261" lon="3.47278">
        <ele>677.53</ele>
        <time>2014-09-04T11:01:42Z</time>
      </trkpt>
      <trkpt lat="43.75262" lon="3.47253">
        <ele>676.63</ele>
        <time>2014-09-04T11:01:58Z</time>
      </trkpt>
      <trkpt lat="43.75264" lon="3.47227">
        <ele>678.57</ele>
        <time>2014-09-04T11:02:16Z</time>
      </trkpt>
      <trkpt lat="43.75266" lon="3.47201">
        <ele>676.96</ele>
        <time>2014-09-04T11:02:35Z</time>
      </trkpt>
      <trkpt lat="43.75266" lon="3.47175">
        <ele>674.69</ele>
        <time>2014-09-04T11:02:52Z</time>
      </trkpt>
      <trkpt lat="43.75267" lon="3.4715">
        <ele>677.57</ele>
        <time>2014-09-04T11:03:08Z</time>
      </trkpt>
      <trkpt lat="43.75272" lon="3.47126">
        <ele>679.61</ele>
        <time>2014-09-04T11:03:22Z</time>
      </trkpt>
      <trkpt lat="43.75275" lon="3.47101">
        <ele>681.78</ele>
        <time>2014-09-04T11:03:37Z</time>
      </trkpt>
      <trkpt lat="43.7528" lon="3.47075">
        <ele>680.49</ele>
        <time>2014-09-04T11:04:01Z</time>
      </trkpt>
      <trkpt lat="43.75286" lon="3.47049">
        <ele>679.56</ele>
        <time>2014-09-04T11:04:17Z</time>
      </trkpt>
      <trkpt lat="43.75291" lon="3.47024">
        <ele>679.75</ele>
        <time>2014-09-04T11:04:28Z</time>
      </trkpt>
      <trkpt lat="43.75296" lon="3.47001">
        <ele>679.22</ele>
        <time>2014-09-04T11:04:44Z</time>
      </trkpt>
      <trkpt lat="43.753" lon="3.46976">
        <ele>683.06</ele>
        <time>2014-09-04T11:04:57Z</time>
      </trkpt>
      <trkpt lat="43.75295" lon="3.46952">
        <ele>683.84</ele>
        <time>2014-09-04T11:05:14Z</time>
      </trkpt>
      <trkpt lat="43.75294" lon="3.46926">
        <ele>683.12</ele>
        <time>2014-09-04T11:05:32Z</time>
      </trkpt>
      <trkpt lat="43.75294" lon="3.469">
        <ele>682.21</ele>
        <time>2014-09-04T11:05:50Z</time>
      </trkpt>
      <trkpt lat="43.75296" lon="3.46875">
        <ele>683.18</ele>
        <time>2014-09-04T11:06:05Z</time>
      </trkpt>
      <trkpt lat="43.75294" lon="3.46849">
        <ele>684.45</ele>
        <time>2014-09-04T11:06:22Z</time>
      </trkpt>
      <trkpt lat="43.75293" lon="3.46823">
        <ele>688.15</ele>
        <time>2014-09-04T11:06:38Z</time>
      </trkpt>
      <trkpt lat="43.75288" lon="3.46799">
        <ele>687.26</ele>
        <time>2014-09-04T11:06:55Z</time>
      </trkpt>
      <trkpt lat="43.75291" lon="3.46772">
        <ele>691.62</ele>
        <time>2014-09-04T11:07:10Z</time>
      </trkpt>
      <trkpt lat="43.75299" lon="3.4675">
        <ele>695.22</ele>
        <time>2014-09-04T11:07:27Z</time>
      </trkpt>
      <trkpt lat="43.75293" lon="3.46726">
        <ele>686.47</ele>
        <time>2014-09-04T11:07:45Z</time>
      </trkpt>
      <trkpt lat="43.75277" lon="3.46714">
        <ele>682.87</ele>
        <time>2014-09-04T11:08:01Z</time>
      </trkpt>
      <trkpt lat="43.7526" lon="3.46704">
        <ele>689.01</ele>
        <time>2014-09-04T11:08:19Z</time>
      </trkpt>
      <trkpt lat="43.75245" lon="3.46688">
        <ele>695.2</ele>
        <time>2014-09-04T11:08:32Z</time>
      </trkpt>
      <trkpt lat="43.7523" lon="3.46673">
        <ele>698.59</ele>
        <time>2014-09-04T11:08:52Z</time>
      </trkpt>
      <trkpt lat="43.75221" lon="3.46651">
        <ele>701.58</ele>
        <time>2014-09-04T11:09:11Z</time>
      </trkpt>
      <trkpt lat="43.75216" lon="3.46626">
        <ele>699.58</ele>
        <time>2014-09-04T11:09:29Z</time>
      </trkpt>
      <trkpt lat="43.75216" lon="3.466">
        <ele>700.58</ele>
        <time>2014-09-04T11:09:46Z</time>
      </trkpt>
      <trkpt lat="43.75199" lon="3.46588">
        <ele>698.9</ele>
        <time>2014-09-04T11:12:15Z</time>
      </trkpt>
      <trkpt lat="43.7518" lon="3.46587">
        <ele>695.58</ele>
        <time>2014-09-04T11:12:51Z</time>
      </trkpt>
      <trkpt lat="43.7517" lon="3.46565">
        <ele>697.54</ele>
        <time>2014-09-04T11:13:21Z</time>
      </trkpt>
      <trkpt lat="43.75172" lon="3.46539">
        <ele>696.64</ele>
        <time>2014-09-04T11:13:37Z</time>
      </trkpt>
      <trkpt lat="43.75159" lon="3.46521">
        <ele>696.58</ele>
        <time>2014-09-04T11:13:53Z</time>
      </trkpt>
      <trkpt lat="43.7514" lon="3.4652">
        <ele>695.08</ele>
        <time>2014-09-04T11:14:10Z</time>
      </trkpt>
      <trkpt lat="43.75122" lon="3.46523">
        <ele>696.13</ele>
        <time>2014-09-04T11:14:28Z</time>
      </trkpt>
      <trkpt lat="43.75104" lon="3.4653">
        <ele>693.64</ele>
        <time>2014-09-04T11:14:47Z</time>
      </trkpt>
      <trkpt lat="43.75088" lon="3.46519">
        <ele>688.65</ele>
        <time>2014-09-04T11:15:21Z</time>
      </trkpt>
      <trkpt lat="43.75076" lon="3.46538">
        <ele>688.62</ele>
        <time>2014-09-04T11:16:35Z</time>
      </trkpt>
      <trkpt lat="43.75063" lon="3.46556">
        <ele>681.37</ele>
        <time>2014-09-04T11:18:44Z</time>
      </trkpt>
      <trkpt lat="43.75051" lon="3.46576">
        <ele>683.84</ele>
        <time>2014-09-04T11:19:17Z</time>
      </trkpt>
      <trkpt lat="43.75038" lon="3.46594">
        <ele>683.75</ele>
        <time>2014-09-04T11:19:59Z</time>
      </trkpt>
      <trkpt lat="43.75021" lon="3.46604">
        <ele>683.58</ele>
        <time>2014-09-04T11:20:34Z</time>
      </trkpt>
      <trkpt lat="43.75007" lon="3.46621">
        <ele>681.51</ele>
        <time>2014-09-04T11:22:33Z</time>
      </trkpt>
      <trkpt lat="43.7499" lon="3.46629">
        <ele>680.89</ele>
        <time>2014-09-04T11:22:53Z</time>
      </trkpt>
      <trkpt lat="43.74972" lon="3.46629">
        <ele>684.95</ele>
        <time>2014-09-04T11:23:10Z</time>
      </trkpt>
      <trkpt lat="43.74954" lon="3.46638">
        <ele>683.16</ele>
        <time>2014-09-04T11:23:26Z</time>
      </trkpt>
      <trkpt lat="43.74939" lon="3.46654">
        <ele>683.49</ele>
        <time>2014-09-04T11:23:53Z</time>
      </trkpt>
      <trkpt lat="43.74922" lon="3.46671">
        <ele>681.68</ele>
        <time>2014-09-04T11:24:03Z</time>
      </trkpt>
      <trkpt lat="43.74905" lon="3.46679">
        <ele>687.53</ele>
        <time>2014-09-04T11:24:16Z</time>
      </trkpt>
      <trkpt lat="43.74889" lon="3.46692">
        <ele>684.22</ele>
        <time>2014-09-04T11:24:30Z</time>
      </trkpt>
      <trkpt lat="43.7487" lon="3.46689">
        <ele>685.5</ele>
        <time>2014-09-04T11:24:48Z</time>
      </trkpt>
      <trkpt lat="43.7486" lon="3.46666">
        <ele>682.14</ele>
        <time>2014-09-04T11:25:19Z</time>
      </trkpt>
      <trkpt lat="43.74855" lon="3.46641">
        <ele>684.62</ele>
        <time>2014-09-04T11:25:36Z</time>
      </trkpt>
      <trkpt lat="43.74872" lon="3.46628">
        <ele>687.1</ele>
        <time>2014-09-04T11:25:57Z</time>
      </trkpt>
      <trkpt lat="43.74882" lon="3.46606">
        <ele>686.26</ele>
        <time>2014-09-04T11:26:18Z</time>
      </trkpt>
      <trkpt lat="43.74893" lon="3.46586">
        <ele>686.32</ele>
        <time>2014-09-04T11:26:34Z</time>
      </trkpt>
      <trkpt lat="43.74907" lon="3.46571">
        <ele>692.54</ele>
        <time>2014-09-04T11:27:03Z</time>
      </trkpt>
      <trkpt lat="43.74924" lon="3.46561">
        <ele>693.25</ele>
        <time>2014-09-04T11:27:23Z</time>
      </trkpt>
      <trkpt lat="43.74942" lon="3.46553">
        <ele>692.26</ele>
        <time>2014-09-04T11:27:45Z</time>
      </trkpt>
      <trkpt lat="43.74953" lon="3.46532">
        <ele>694.08</ele>
        <time>2014-09-04T11:28:02Z</time>
      </trkpt>
      <trkpt lat="43.74963" lon="3.4651">
        <ele>697.75</ele>
        <time>2014-09-04T11:28:17Z</time>
      </trkpt>
      <trkpt lat="43.74971" lon="3.46487">
        <ele>696.54</ele>
        <time>2014-09-04T11:28:30Z</time>
      </trkpt>
      <trkpt lat="43.74981" lon="3.46466">
        <ele>697.05</ele>
        <time>2014-09-04T11:28:46Z</time>
      </trkpt>
      <trkpt lat="43.74993" lon="3.46447">
        <ele>694.71</ele>
        <time>2014-09-04T11:28:59Z</time>
      </trkpt>
      <trkpt lat="43.74992" lon="3.4642">
        <ele>693.1</ele>
        <time>2014-09-04T11:29:18Z</time>
      </trkpt>
      <trkpt lat="43.74984" lon="3.46398">
        <ele>693.04</ele>
        <time>2014-09-04T11:29:37Z</time>
      </trkpt>
      <trkpt lat="43.74968" lon="3.46385">
        <ele>693.84</ele>
        <time>2014-09-04T11:30:00Z</time>
      </trkpt>
      <trkpt lat="43.74954" lon="3.46368">
        <ele>695.82</ele>
        <time>2014-09-04T11:30:13Z</time>
      </trkpt>
      <trkpt lat="43.74939" lon="3.46353">
        <ele>691.13</ele>
        <time>2014-09-04T11:30:32Z</time>
      </trkpt>
      <trkpt lat="43.74921" lon="3.46348">
        <ele>693.84</ele>
        <time>2014-09-04T11:30:48Z</time>
      </trkpt>
      <trkpt lat="43.74906" lon="3.46335">
        <ele>690.95</ele>
        <time>2014-09-04T11:31:44Z</time>
      </trkpt>
      <trkpt lat="43.74887" lon="3.46332">
        <ele>693.56</ele>
        <time>2014-09-04T11:32:03Z</time>
      </trkpt>
      <trkpt lat="43.74868" lon="3.46331">
        <ele>691.57</ele>
        <time>2014-09-04T11:32:36Z</time>
      </trkpt>
      <trkpt lat="43.74851" lon="3.46322">
        <ele>690.79</ele>
        <time>2014-09-04T11:32:52Z</time>
      </trkpt>
      <trkpt lat="43.74841" lon="3.46301">
        <ele>691.81</ele>
        <time>2014-09-04T11:33:10Z</time>
      </trkpt>
      <trkpt lat="43.74827" lon="3.46285">
        <ele>691.67</ele>
        <time>2014-09-04T11:33:27Z</time>
      </trkpt>
      <trkpt lat="43.74811" lon="3.46271">
        <ele>691.81</ele>
        <time>2014-09-04T11:33:45Z</time>
      </trkpt>
      <trkpt lat="43.74793" lon="3.46264">
        <ele>692.94</ele>
        <time>2014-09-04T11:34:09Z</time>
      </trkpt>
      <trkpt lat="43.74776" lon="3.46256">
        <ele>696.8</ele>
        <time>2014-09-04T11:34:26Z</time>
      </trkpt>
      <trkpt lat="43.74761" lon="3.46239">
        <ele>699.05</ele>
        <time>2014-09-04T11:34:42Z</time>
      </trkpt>
      <trkpt lat="43.74743" lon="3.46237">
        <ele>699.87</ele>
        <time>2014-09-04T11:34:59Z</time>
      </trkpt>
      <trkpt lat="43.74725" lon="3.4623">
        <ele>699.5</ele>
        <time>2014-09-04T11:35:16Z</time>
      </trkpt>
      <trkpt lat="43.74707" lon="3.46221">
        <ele>701.28</ele>
        <time>2014-09-04T11:35:32Z</time>
      </trkpt>
      <trkpt lat="43.7469" lon="3.4621">
        <ele>701.55</ele>
        <time>2014-09-04T11:35:46Z</time>
      </trkpt>
      <trkpt lat="43.74672" lon="3.46212">
        <ele>707.86</ele>
        <time>2014-09-04T11:35:58Z</time>
      </trkpt>
      <trkpt lat="43.74656" lon="3.462">
        <ele>710.5</ele>
        <time>2014-09-04T11:36:14Z</time>
      </trkpt>
      <trkpt lat="43.74639" lon="3.46192">
        <ele>713.72</ele>
        <time>2014-09-04T11:36:30Z</time>
      </trkpt>
      <trkpt lat="43.74626" lon="3.46173">
        <ele>700.64</ele>
        <time>2014-09-04T11:36:50Z</time>
      </trkpt>
      <trkpt lat="43.74616" lon="3.46153">
        <ele>696.64</ele>
        <time>2014-09-04T11:37:03Z</time>
      </trkpt>
      <trkpt lat="43.74603" lon="3.46133">
        <ele>700.07</ele>
        <time>2014-09-04T11:37:17Z</time>
      </trkpt>
      <trkpt lat="43.74591" lon="3.46112">
        <ele>701.1</ele>
        <time>2014-09-04T11:37:34Z</time>
      </trkpt>
      <trkpt lat="43.7458" lon="3.46091">
        <ele>706.51</ele>
        <time>2014-09-04T11:37:48Z</time>
      </trkpt>
      <trkpt lat="43.74568" lon="3.46071">
        <ele>714.57</ele>
        <time>2014-09-04T11:38:02Z</time>
      </trkpt>
      <trkpt lat="43.74561" lon="3.46049">
        <ele>711.24</ele>
        <time>2014-09-04T11:38:16Z</time>
      </trkpt>
      <trkpt lat="43.74548" lon="3.46031">
        <ele>708.86</ele>
        <time>2014-09-04T11:38:30Z</time>
      </trkpt>
      <trkpt lat="43.74534" lon="3.46013">
        <ele>710.68</ele>
        <time>2014-09-04T11:38:44Z</time>
      </trkpt>
      <trkpt lat="43.74523" lon="3.45992">
        <ele>709.25</ele>
        <time>2014-09-04T11:38:58Z</time>
      </trkpt>
      <trkpt lat="43.74512" lon="3.4597">
        <ele>706.84</ele>
        <time>2014-09-04T11:39:14Z</time>
      </trkpt>
      <trkpt lat="43.74505" lon="3.45946">
        <ele>705.64</ele>
        <time>2014-09-04T11:39:30Z</time>
      </trkpt>
      <trkpt lat="43.745" lon="3.45921">
        <ele>706.72</ele>
        <time>2014-09-04T11:39:48Z</time>
      </trkpt>
      <trkpt lat="43.74496" lon="3.45896">
        <ele>708.2</ele>
        <time>2014-09-04T11:40:03Z</time>
      </trkpt>
      <trkpt lat="43.74503" lon="3.45872">
        <ele>702.24</ele>
        <time>2014-09-04T11:40:14Z</time>
      </trkpt>
      <trkpt lat="43.74496" lon="3.45848">
        <ele>701.81</ele>
        <time>2014-09-04T11:40:28Z</time>
      </trkpt>
      <trkpt lat="43.74479" lon="3.45834">
        <ele>698.38</ele>
        <time>2014-09-04T11:40:41Z</time>
      </trkpt>
      <trkpt lat="43.74461" lon="3.45826">
        <ele>702.34</ele>
        <time>2014-09-04T11:40:53Z</time>
      </trkpt>
      <trkpt lat="43.74443" lon="3.45823">
        <ele>694.3</ele>
        <time>2014-09-04T11:41:09Z</time>
      </trkpt>
      <trkpt lat="43.74425" lon="3.45821">
        <ele>691.51</ele>
        <time>2014-09-04T11:41:24Z</time>
      </trkpt>
      <trkpt lat="43.74406" lon="3.45824">
        <ele>687.08</ele>
        <time>2014-09-04T11:41:41Z</time>
      </trkpt>
      <trkpt lat="43.74388" lon="3.45825">
        <ele>681.48</ele>
        <time>2014-09-04T11:41:55Z</time>
      </trkpt>
      <trkpt lat="43.7437" lon="3.45824">
        <ele>679.7</ele>
        <time>2014-09-04T11:42:09Z</time>
      </trkpt>
      <trkpt lat="43.74353" lon="3.45812">
        <ele>685.72</ele>
        <time>2014-09-04T11:42:28Z</time>
      </trkpt>
      <trkpt lat="43.74335" lon="3.45814">
        <ele>680.3</ele>
        <time>2014-09-04T11:42:42Z</time>
      </trkpt>
      <trkpt lat="43.74324" lon="3.45794">
        <ele>687.23</ele>
        <time>2014-09-04T11:42:51Z</time>
      </trkpt>
      <trkpt lat="43.74314" lon="3.45772">
        <ele>684.64</ele>
        <time>2014-09-04T11:43:08Z</time>
      </trkpt>
      <trkpt lat="43.74305" lon="3.45748">
        <ele>690.6</ele>
        <time>2014-09-04T11:43:26Z</time>
      </trkpt>
      <trkpt lat="43.74292" lon="3.45731">
        <ele>691.62</ele>
        <time>2014-09-04T11:43:41Z</time>
      </trkpt>
      <trkpt lat="43.7428" lon="3.45711">
        <ele>695.36</ele>
        <time>2014-09-04T11:43:59Z</time>
      </trkpt>
      <trkpt lat="43.74265" lon="3.45694">
        <ele>688.16</ele>
        <time>2014-09-04T11:44:12Z</time>
      </trkpt>
      <trkpt lat="43.7425" lon="3.45679">
        <ele>686.2</ele>
        <time>2014-09-04T11:44:25Z</time>
      </trkpt>
      <trkpt lat="43.74233" lon="3.45673">
        <ele>678.18</ele>
        <time>2014-09-04T11:44:35Z</time>
      </trkpt>
      <trkpt lat="43.74215" lon="3.45665">
        <ele>670.99</ele>
        <time>2014-09-04T11:44:49Z</time>
      </trkpt>
      <trkpt lat="43.74197" lon="3.45655">
        <ele>671.08</ele>
        <time>2014-09-04T11:45:03Z</time>
      </trkpt>
      <trkpt lat="43.74179" lon="3.45649">
        <ele>669.52</ele>
        <time>2014-09-04T11:45:18Z</time>
      </trkpt>
      <trkpt lat="43.74161" lon="3.45653">
        <ele>666.24</ele>
        <time>2014-09-04T11:45:33Z</time>
      </trkpt>
      <trkpt lat="43.74145" lon="3.45665">
        <ele>657.55</ele>
        <time>2014-09-04T11:45:48Z</time>
      </trkpt>
      <trkpt lat="43.74126" lon="3.45667">
        <ele>657.73</ele>
        <time>2014-09-04T11:46:02Z</time>
      </trkpt>
      <trkpt lat="43.74108" lon="3.45661">
        <ele>659.98</ele>
        <time>2014-09-04T11:46:16Z</time>
      </trkpt>
      <trkpt lat="43.74124" lon="3.45647">
        <ele>663.76</ele>
        <time>2014-09-04T11:46:50Z</time>
      </trkpt>
      <trkpt lat="43.7414" lon="3.45636">
        <ele>666.7</ele>
        <time>2014-09-04T11:47:06Z</time>
      </trkpt>
      <trkpt lat="43.74157" lon="3.4563">
        <ele>659.13</ele>
        <time>2014-09-04T11:47:21Z</time>
      </trkpt>
      <trkpt lat="43.74175" lon="3.4562">
        <ele>661.11</ele>
        <time>2014-09-04T11:47:38Z</time>
      </trkpt>
      <trkpt lat="43.74192" lon="3.45609">
        <ele>660.88</ele>
        <time>2014-09-04T11:47:52Z</time>
      </trkpt>
      <trkpt lat="43.7421" lon="3.45608">
        <ele>660.99</ele>
        <time>2014-09-04T11:48:07Z</time>
      </trkpt>
      <trkpt lat="43.74227" lon="3.45618">
        <ele>659.96</ele>
        <time>2014-09-04T11:48:22Z</time>
      </trkpt>
      <trkpt lat="43.74243" lon="3.4563">
        <ele>654.04</ele>
        <time>2014-09-04T11:48:37Z</time>
      </trkpt>
      <trkpt lat="43.74257" lon="3.45646">
        <ele>653.47</ele>
        <time>2014-09-04T11:48:51Z</time>
      </trkpt>
      <trkpt lat="43.74274" lon="3.45658">
        <ele>653.13</ele>
        <time>2014-09-04T11:49:07Z</time>
      </trkpt>
      <trkpt lat="43.7429" lon="3.4567">
        <ele>644.89</ele>
        <time>2014-09-04T11:49:21Z</time>
      </trkpt>
      <trkpt lat="43.74306" lon="3.45682">
        <ele>654.73</ele>
        <time>2014-09-04T11:49:38Z</time>
      </trkpt>
      <trkpt lat="43.7432" lon="3.45699">
        <ele>654.45</ele>
        <time>2014-09-04T11:49:52Z</time>
      </trkpt>
      <trkpt lat="43.74332" lon="3.45718">
        <ele>649.15</ele>
        <time>2014-09-04T11:50:07Z</time>
      </trkpt>
      <trkpt lat="43.74348" lon="3.45731">
        <ele>653.84</ele>
        <time>2014-09-04T11:50:24Z</time>
      </trkpt>
      <trkpt lat="43.74365" lon="3.45739">
        <ele>658.36</ele>
        <time>2014-09-04T11:50:42Z</time>
      </trkpt>
      <trkpt lat="43.74384" lon="3.45735">
        <ele>648.35</ele>
        <time>2014-09-04T11:50:55Z</time>
      </trkpt>
      <trkpt lat="43.74402" lon="3.45728">
        <ele>647.58</ele>
        <time>2014-09-04T11:51:09Z</time>
      </trkpt>
      <trkpt lat="43.74417" lon="3.45715">
        <ele>647.21</ele>
        <time>2014-09-04T11:51:19Z</time>
      </trkpt>
      <trkpt lat="43.74429" lon="3.45695">
        <ele>650.19</ele>
        <time>2014-09-04T11:51:31Z</time>
      </trkpt>
      <trkpt lat="43.74446" lon="3.45686">
        <ele>650.86</ele>
        <time>2014-09-04T11:51:47Z</time>
      </trkpt>
      <trkpt lat="43.74463" lon="3.45698">
        <ele>650.74</ele>
        <time>2014-09-04T11:52:03Z</time>
      </trkpt>
      <trkpt lat="43.74478" lon="3.45714">
        <ele>646.46</ele>
        <time>2014-09-04T11:52:16Z</time>
      </trkpt>
      <trkpt lat="43.74493" lon="3.45728">
        <ele>640.09</ele>
        <time>2014-09-04T11:52:30Z</time>
      </trkpt>
      <trkpt lat="43.74511" lon="3.45732">
        <ele>633.96</ele>
        <time>2014-09-04T11:52:47Z</time>
      </trkpt>
      <trkpt lat="43.7453" lon="3.45737">
        <ele>625.92</ele>
        <time>2014-09-04T11:53:00Z</time>
      </trkpt>
      <trkpt lat="43.74549" lon="3.45742">
        <ele>627.14</ele>
        <time>2014-09-04T11:53:13Z</time>
      </trkpt>
      <trkpt lat="43.74568" lon="3.45746">
        <ele>624.27</ele>
        <time>2014-09-04T11:53:30Z</time>
      </trkpt>
      <trkpt lat="43.74587" lon="3.45743">
        <ele>625.87</ele>
        <time>2014-09-04T11:53:42Z</time>
      </trkpt>
      <trkpt lat="43.74605" lon="3.45738">
        <ele>622.13</ele>
        <time>2014-09-04T11:53:58Z</time>
      </trkpt>
      <trkpt lat="43.74621" lon="3.45724">
        <ele>622.58</ele>
        <time>2014-09-04T11:54:09Z</time>
      </trkpt>
      <trkpt lat="43.74639" lon="3.45724">
        <ele>614.01</ele>
        <time>2014-09-04T11:54:22Z</time>
      </trkpt>
      <trkpt lat="43.74657" lon="3.45727">
        <ele>617.62</ele>
        <time>2014-09-04T11:54:35Z</time>
      </trkpt>
      <trkpt lat="43.74675" lon="3.4572">
        <ele>619.17</ele>
        <time>2014-09-04T11:54:46Z</time>
      </trkpt>
      <trkpt lat="43.74694" lon="3.45715">
        <ele>612.33</ele>
        <time>2014-09-04T11:55:02Z</time>
      </trkpt>
      <trkpt lat="43.74711" lon="3.45703">
        <ele>610.64</ele>
        <time>2014-09-04T11:55:19Z</time>
      </trkpt>
      <trkpt lat="43.74728" lon="3.45692">
        <ele>613.84</ele>
        <time>2014-09-04T11:55:34Z</time>
      </trkpt>
      <trkpt lat="43.74744" lon="3.45677">
        <ele>616.01</ele>
        <time>2014-09-04T11:55:50Z</time>
      </trkpt>
      <trkpt lat="43.74756" lon="3.45656">
        <ele>618.72</ele>
        <time>2014-09-04T11:56:01Z</time>
      </trkpt>
      <trkpt lat="43.74768" lon="3.45637">
        <ele>618.25</ele>
        <time>2014-09-04T11:56:12Z</time>
      </trkpt>
      <trkpt lat="43.74775" lon="3.45614">
        <ele>623.23</ele>
        <time>2014-09-04T11:56:29Z</time>
      </trkpt>
      <trkpt lat="43.74778" lon="3.45587">
        <ele>636.32</ele>
        <time>2014-09-04T11:56:41Z</time>
      </trkpt>
      <trkpt lat="43.74785" lon="3.45564">
        <ele>634.09</ele>
        <time>2014-09-04T11:56:57Z</time>
      </trkpt>
      <trkpt lat="43.74798" lon="3.45546">
        <ele>628.14</ele>
        <time>2014-09-04T11:57:11Z</time>
      </trkpt>
      <trkpt lat="43.74809" lon="3.45524">
        <ele>627.52</ele>
        <time>2014-09-04T11:57:26Z</time>
      </trkpt>
      <trkpt lat="43.74817" lon="3.455">
        <ele>633.27</ele>
        <time>2014-09-04T11:57:42Z</time>
      </trkpt>
      <trkpt lat="43.74811" lon="3.45477">
        <ele>633.95</ele>
        <time>2014-09-04T11:57:55Z</time>
      </trkpt>
      <trkpt lat="43.74805" lon="3.45453">
        <ele>631.48</ele>
        <time>2014-09-04T11:58:11Z</time>
      </trkpt>
      <trkpt lat="43.74801" lon="3.45428">
        <ele>624.61</ele>
        <time>2014-09-04T11:58:25Z</time>
      </trkpt>
      <trkpt lat="43.74808" lon="3.45405">
        <ele>626.86</ele>
        <time>2014-09-04T11:58:40Z</time>
      </trkpt>
      <trkpt lat="43.74801" lon="3.45381">
        <ele>629.77</ele>
        <time>2014-09-04T11:58:53Z</time>
      </trkpt>
      <trkpt lat="43.74793" lon="3.45358">
        <ele>630.55</ele>
        <time>2014-09-04T11:59:06Z</time>
      </trkpt>
      <trkpt lat="43.7479" lon="3.45332">
        <ele>624.27</ele>
        <time>2014-09-04T11:59:22Z</time>
      </trkpt>
      <trkpt lat="43.74789" lon="3.45307">
        <ele>619.1</ele>
        <time>2014-09-04T11:59:36Z</time>
      </trkpt>
      <trkpt lat="43.74787" lon="3.4528">
        <ele>616.85</ele>
        <time>2014-09-04T11:59:51Z</time>
      </trkpt>
      <trkpt lat="43.74785" lon="3.45254">
        <ele>617.07</ele>
        <time>2014-09-04T12:00:05Z</time>
      </trkpt>
      <trkpt lat="43.74784" lon="3.45227">
        <ele>609.62</ele>
        <time>2014-09-04T12:00:19Z</time>
      </trkpt>
      <trkpt lat="43.74788" lon="3.45201">
        <ele>607.77</ele>
        <time>2014-09-04T12:00:34Z</time>
      </trkpt>
      <trkpt lat="43.7479" lon="3.45175">
        <ele>615.41</ele>
        <time>2014-09-04T12:00:47Z</time>
      </trkpt>
      <trkpt lat="43.74794" lon="3.4515">
        <ele>614.92</ele>
        <time>2014-09-04T12:01:01Z</time>
      </trkpt>
      <trkpt lat="43.74806" lon="3.45129">
        <ele>619.57</ele>
        <time>2014-09-04T12:01:17Z</time>
      </trkpt>
      <trkpt lat="43.74824" lon="3.45121">
        <ele>612.54</ele>
        <time>2014-09-04T12:01:29Z</time>
      </trkpt>
      <trkpt lat="43.74843" lon="3.45118">
        <ele>609.02</ele>
        <time>2014-09-04T12:01:44Z</time>
      </trkpt>
      <trkpt lat="43.7486" lon="3.45111">
        <ele>608.82</ele>
        <time>2014-09-04T12:02:04Z</time>
      </trkpt>
      <trkpt lat="43.74852" lon="3.45088">
        <ele>607.61</ele>
        <time>2014-09-04T12:09:21Z</time>
      </trkpt>
      <trkpt lat="43.7484" lon="3.45068">
        <ele>601.33</ele>
        <time>2014-09-04T12:09:41Z</time>
      </trkpt>
      <trkpt lat="43.74822" lon="3.45072">
        <ele>598.89</ele>
        <time>2014-09-04T12:09:59Z</time>
      </trkpt>
      <trkpt lat="43.74804" lon="3.45074">
        <ele>594.89</ele>
        <time>2014-09-04T12:10:24Z</time>
      </trkpt>
      <trkpt lat="43.74786" lon="3.45072">
        <ele>595.21</ele>
        <time>2014-09-04T12:10:40Z</time>
      </trkpt>
      <trkpt lat="43.74773" lon="3.45054">
        <ele>591.13</ele>
        <time>2014-09-04T12:11:10Z</time>
      </trkpt>
      <trkpt lat="43.74771" lon="3.45029">
        <ele>587.73</ele>
        <time>2014-09-04T12:11:40Z</time>
      </trkpt>
      <trkpt lat="43.74763" lon="3.45005">
        <ele>583.16</ele>
        <time>2014-09-04T12:11:56Z</time>
      </trkpt>
      <trkpt lat="43.74755" lon="3.44983">
        <ele>580.85</ele>
        <time>2014-09-04T12:12:14Z</time>
      </trkpt>
      <trkpt lat="43.74744" lon="3.44963">
        <ele>576.71</ele>
        <time>2014-09-04T12:12:30Z</time>
      </trkpt>
      <trkpt lat="43.74748" lon="3.44987">
        <ele>574.11</ele>
        <time>2014-09-04T12:12:53Z</time>
      </trkpt>
      <trkpt lat="43.74735" lon="3.44971">
        <ele>569.49</ele>
        <time>2014-09-04T12:13:31Z</time>
      </trkpt>
      <trkpt lat="43.7472" lon="3.44955">
        <ele>566.45</ele>
        <time>2014-09-04T12:13:45Z</time>
      </trkpt>
      <trkpt lat="43.74703" lon="3.44945">
        <ele>558.82</ele>
        <time>2014-09-04T12:14:02Z</time>
      </trkpt>
      <trkpt lat="43.74685" lon="3.44942">
        <ele>555.15</ele>
        <time>2014-09-04T12:14:18Z</time>
      </trkpt>
      <trkpt lat="43.74666" lon="3.44934">
        <ele>562.57</ele>
        <time>2014-09-04T12:14:33Z</time>
      </trkpt>
      <trkpt lat="43.74647" lon="3.44933">
        <ele>565.95</ele>
        <time>2014-09-04T12:14:50Z</time>
      </trkpt>
      <trkpt lat="43.74628" lon="3.44932">
        <ele>567.7</ele>
        <time>2014-09-04T12:15:01Z</time>
      </trkpt>
      <trkpt lat="43.7461" lon="3.44938">
        <ele>561.98</ele>
        <time>2014-09-04T12:15:15Z</time>
      </trkpt>
      <trkpt lat="43.74591" lon="3.44938">
        <ele>556.74</ele>
        <time>2014-09-04T12:15:36Z</time>
      </trkpt>
      <trkpt lat="43.74576" lon="3.44924">
        <ele>552.59</ele>
        <time>2014-09-04T12:15:58Z</time>
      </trkpt>
      <trkpt lat="43.7456" lon="3.4491">
        <ele>554.9</ele>
        <time>2014-09-04T12:16:27Z</time>
      </trkpt>
      <trkpt lat="43.74547" lon="3.44893">
        <ele>554.91</ele>
        <time>2014-09-04T12:16:42Z</time>
      </trkpt>
      <trkpt lat="43.74544" lon="3.44867">
        <ele>549.59</ele>
        <time>2014-09-04T12:16:56Z</time>
      </trkpt>
      <trkpt lat="43.74536" lon="3.44845">
        <ele>550.37</ele>
        <time>2014-09-04T12:17:12Z</time>
      </trkpt>
      <trkpt lat="43.74528" lon="3.44822">
        <ele>549.06</ele>
        <time>2014-09-04T12:17:27Z</time>
      </trkpt>
      <trkpt lat="43.74524" lon="3.44797">
        <ele>547.58</ele>
        <time>2014-09-04T12:17:44Z</time>
      </trkpt>
      <trkpt lat="43.74524" lon="3.44772">
        <ele>539.36</ele>
        <time>2014-09-04T12:17:55Z</time>
      </trkpt>
      <trkpt lat="43.74527" lon="3.44747">
        <ele>535.34</ele>
        <time>2014-09-04T12:18:10Z</time>
      </trkpt>
      <trkpt lat="43.74522" lon="3.44722">
        <ele>536.55</ele>
        <time>2014-09-04T12:18:26Z</time>
      </trkpt>
      <trkpt lat="43.74517" lon="3.44697">
        <ele>534.96</ele>
        <time>2014-09-04T12:18:40Z</time>
      </trkpt>
      <trkpt lat="43.74513" lon="3.4467">
        <ele>531.58</ele>
        <time>2014-09-04T12:19:10Z</time>
      </trkpt>
      <trkpt lat="43.74507" lon="3.44647">
        <ele>529.47</ele>
        <time>2014-09-04T12:19:20Z</time>
      </trkpt>
      <trkpt lat="43.74502" lon="3.44622">
        <ele>528.98</ele>
        <time>2014-09-04T12:19:39Z</time>
      </trkpt>
      <trkpt lat="43.74499" lon="3.44597">
        <ele>522.34</ele>
        <time>2014-09-04T12:19:51Z</time>
      </trkpt>
      <trkpt lat="43.74509" lon="3.44576">
        <ele>519.32</ele>
        <time>2014-09-04T12:20:11Z</time>
      </trkpt>
      <trkpt lat="43.74516" lon="3.44553">
        <ele>515.81</ele>
        <time>2014-09-04T12:20:21Z</time>
      </trkpt>
      <trkpt lat="43.74517" lon="3.44527">
        <ele>518.06</ele>
        <time>2014-09-04T12:20:32Z</time>
      </trkpt>
      <trkpt lat="43.74526" lon="3.44506">
        <ele>514.8</ele>
        <time>2014-09-04T12:21:02Z</time>
      </trkpt>
      <trkpt lat="43.74536" lon="3.44484">
        <ele>522.18</ele>
        <time>2014-09-04T12:21:14Z</time>
      </trkpt>
      <trkpt lat="43.74553" lon="3.44474">
        <ele>520.17</ele>
        <time>2014-09-04T12:21:27Z</time>
      </trkpt>
      <trkpt lat="43.7457" lon="3.44463">
        <ele>518.17</ele>
        <time>2014-09-04T12:21:40Z</time>
      </trkpt>
      <trkpt lat="43.74586" lon="3.44447">
        <ele>516.88</ele>
        <time>2014-09-04T12:22:02Z</time>
      </trkpt>
      <trkpt lat="43.74598" lon="3.44428">
        <ele>516.15</ele>
        <time>2014-09-04T12:22:16Z</time>
      </trkpt>
      <trkpt lat="43.74614" lon="3.44414">
        <ele>515.75</ele>
        <time>2014-09-04T12:22:31Z</time>
      </trkpt>
      <trkpt lat="43.74626" lon="3.44394">
        <ele>503.8</ele>
        <time>2014-09-04T12:22:52Z</time>
      </trkpt>
      <trkpt lat="43.74618" lon="3.44371">
        <ele>501.38</ele>
        <time>2014-09-04T12:23:14Z</time>
      </trkpt>
      <trkpt lat="43.74613" lon="3.44347">
        <ele>502.54</ele>
        <time>2014-09-04T12:23:28Z</time>
      </trkpt>
      <trkpt lat="43.74624" lon="3.44326">
        <ele>505.78</ele>
        <time>2014-09-04T12:25:31Z</time>
      </trkpt>
      <trkpt lat="43.74642" lon="3.44317">
        <ele>501.69</ele>
        <time>2014-09-04T12:25:55Z</time>
      </trkpt>
      <trkpt lat="43.7466" lon="3.4431">
        <ele>505.13</ele>
        <time>2014-09-04T12:26:14Z</time>
      </trkpt>
      <trkpt lat="43.74679" lon="3.44314">
        <ele>501.99</ele>
        <time>2014-09-04T12:26:33Z</time>
      </trkpt>
      <trkpt lat="43.74697" lon="3.44314">
        <ele>502.61</ele>
        <time>2014-09-04T12:26:48Z</time>
      </trkpt>
      <trkpt lat="43.74716" lon="3.4431">
        <ele>503.82</ele>
        <time>2014-09-04T12:27:06Z</time>
      </trkpt>
      <trkpt lat="43.74735" lon="3.4431">
        <ele>497.62</ele>
        <time>2014-09-04T12:27:20Z</time>
      </trkpt>
      <trkpt lat="43.74754" lon="3.44312">
        <ele>493.52</ele>
        <time>2014-09-04T12:27:35Z</time>
      </trkpt>
      <trkpt lat="43.74772" lon="3.44312">
        <ele>490.7</ele>
        <time>2014-09-04T12:27:50Z</time>
      </trkpt>
      <trkpt lat="43.74791" lon="3.44312">
        <ele>486.99</ele>
        <time>2014-09-04T12:28:05Z</time>
      </trkpt>
      <trkpt lat="43.74809" lon="3.44316">
        <ele>485.26</ele>
        <time>2014-09-04T12:28:21Z</time>
      </trkpt>
      <trkpt lat="43.74827" lon="3.44321">
        <ele>484.85</ele>
        <time>2014-09-04T12:28:38Z</time>
      </trkpt>
      <trkpt lat="43.74846" lon="3.44326">
        <ele>482.03</ele>
        <time>2014-09-04T12:28:54Z</time>
      </trkpt>
      <trkpt lat="43.74861" lon="3.4434">
        <ele>481.05</ele>
        <time>2014-09-04T12:29:07Z</time>
      </trkpt>
      <trkpt lat="43.74872" lon="3.44318">
        <ele>480.44</ele>
        <time>2014-09-04T12:29:20Z</time>
      </trkpt>
      <trkpt lat="43.74873" lon="3.44293">
        <ele>473.27</ele>
        <time>2014-09-04T12:29:38Z</time>
      </trkpt>
      <trkpt lat="43.74875" lon="3.44267">
        <ele>469.99</ele>
        <time>2014-09-04T12:29:59Z</time>
      </trkpt>
      <trkpt lat="43.74877" lon="3.44242">
        <ele>468.21</ele>
        <time>2014-09-04T12:30:16Z</time>
      </trkpt>
      <trkpt lat="43.74875" lon="3.44217">
        <ele>467.85</ele>
        <time>2014-09-04T12:30:28Z</time>
      </trkpt>
      <trkpt lat="43.74863" lon="3.44196">
        <ele>466.14</ele>
        <time>2014-09-04T12:30:45Z</time>
      </trkpt>
      <trkpt lat="43.74851" lon="3.44177">
        <ele>466.95</ele>
        <time>2014-09-04T12:31:01Z</time>
      </trkpt>
      <trkpt lat="43.74839" lon="3.44157">
        <ele>462.86</ele>
        <time>2014-09-04T12:31:16Z</time>
      </trkpt>
      <trkpt lat="43.74825" lon="3.44139">
        <ele>459.36</ele>
        <time>2014-09-04T12:31:31Z</time>
      </trkpt>
      <trkpt lat="43.74818" lon="3.44114">
        <ele>459.3</ele>
        <time>2014-09-04T12:31:47Z</time>
      </trkpt>
      <trkpt lat="43.74818" lon="3.44088">
        <ele>457.84</ele>
        <time>2014-09-04T12:32:04Z</time>
      </trkpt>
      <trkpt lat="43.74818" lon="3.44063">
        <ele>454.43</ele>
        <time>2014-09-04T12:32:22Z</time>
      </trkpt>
      <trkpt lat="43.74816" lon="3.44037">
        <ele>452.84</ele>
        <time>2014-09-04T12:32:39Z</time>
      </trkpt>
      <trkpt lat="43.74802" lon="3.44019">
        <ele>451.09</ele>
        <time>2014-09-04T12:32:54Z</time>
      </trkpt>
      <trkpt lat="43.74785" lon="3.44032">
        <ele>449.73</ele>
        <time>2014-09-04T12:33:09Z</time>
      </trkpt>
      <trkpt lat="43.74768" lon="3.44045">
        <ele>447.58</ele>
        <time>2014-09-04T12:33:25Z</time>
      </trkpt>
      <trkpt lat="43.7475" lon="3.44047">
        <ele>447.94</ele>
        <time>2014-09-04T12:33:43Z</time>
      </trkpt>
      <trkpt lat="43.74738" lon="3.44027">
        <ele>444.95</ele>
        <time>2014-09-04T12:33:57Z</time>
      </trkpt>
      <trkpt lat="43.74721" lon="3.44015">
        <ele>438.58</ele>
        <time>2014-09-04T12:34:15Z</time>
      </trkpt>
      <trkpt lat="43.74706" lon="3.44">
        <ele>436.13</ele>
        <time>2014-09-04T12:34:31Z</time>
      </trkpt>
      <trkpt lat="43.74698" lon="3.43977">
        <ele>436.17</ele>
        <time>2014-09-04T12:34:47Z</time>
      </trkpt>
      <trkpt lat="43.7471" lon="3.43958">
        <ele>433.67</ele>
        <time>2014-09-04T12:35:56Z</time>
      </trkpt>
      <trkpt lat="43.74728" lon="3.43958">
        <ele>427.6</ele>
        <time>2014-09-04T12:36:14Z</time>
      </trkpt>
      <trkpt lat="43.74747" lon="3.43957">
        <ele>427.38</ele>
        <time>2014-09-04T12:36:32Z</time>
      </trkpt>
      <trkpt lat="43.74764" lon="3.43947">
        <ele>433.49</ele>
        <time>2014-09-04T12:36:51Z</time>
      </trkpt>
      <trkpt lat="43.74782" lon="3.43939">
        <ele>433.84</ele>
        <time>2014-09-04T12:37:06Z</time>
      </trkpt>
      <trkpt lat="43.74799" lon="3.43931">
        <ele>433.05</ele>
        <time>2014-09-04T12:37:21Z</time>
      </trkpt>
      <trkpt lat="43.74817" lon="3.43924">
        <ele>436.24</ele>
        <time>2014-09-04T12:37:38Z</time>
      </trkpt>
      <trkpt lat="43.74832" lon="3.43911">
        <ele>428.72</ele>
        <time>2014-09-04T12:37:59Z</time>
      </trkpt>
      <trkpt lat="43.74837" lon="3.43886">
        <ele>422.44</ele>
        <time>2014-09-04T12:38:52Z</time>
      </trkpt>
      <trkpt lat="43.74852" lon="3.43872">
        <ele>417.82</ele>
        <time>2014-09-04T12:39:14Z</time>
      </trkpt>
      <trkpt lat="43.74871" lon="3.43866">
        <ele>412.72</ele>
        <time>2014-09-04T12:39:38Z</time>
      </trkpt>
      <trkpt lat="43.74889" lon="3.4386">
        <ele>409.15</ele>
        <time>2014-09-04T12:39:53Z</time>
      </trkpt>
      <trkpt lat="43.74907" lon="3.43857">
        <ele>409.42</ele>
        <time>2014-09-04T12:40:13Z</time>
      </trkpt>
      <trkpt lat="43.74925" lon="3.43867">
        <ele>403.89</ele>
        <time>2014-09-04T12:40:30Z</time>
      </trkpt>
      <trkpt lat="43.74943" lon="3.43873">
        <ele>406</ele>
        <time>2014-09-04T12:40:44Z</time>
      </trkpt>
      <trkpt lat="43.74961" lon="3.43877">
        <ele>404.28</ele>
        <time>2014-09-04T12:41:04Z</time>
      </trkpt>
      <trkpt lat="43.7498" lon="3.43879">
        <ele>398.33</ele>
        <time>2014-09-04T12:41:19Z</time>
      </trkpt>
      <trkpt lat="43.74998" lon="3.43873">
        <ele>397.19</ele>
        <time>2014-09-04T12:41:35Z</time>
      </trkpt>
      <trkpt lat="43.75015" lon="3.43869">
        <ele>394.7</ele>
        <time>2014-09-04T12:41:50Z</time>
      </trkpt>
      <trkpt lat="43.75024" lon="3.43846">
        <ele>388.31</ele>
        <time>2014-09-04T12:42:15Z</time>
      </trkpt>
      <trkpt lat="43.75033" lon="3.43824">
        <ele>381.21</ele>
        <time>2014-09-04T12:42:38Z</time>
      </trkpt>
      <trkpt lat="43.75051" lon="3.43816">
        <ele>376.83</ele>
        <time>2014-09-04T12:42:59Z</time>
      </trkpt>
      <trkpt lat="43.75053" lon="3.43791">
        <ele>369.22</ele>
        <time>2014-09-04T12:43:29Z</time>
      </trkpt>
      <trkpt lat="43.75071" lon="3.4379">
        <ele>369.06</ele>
        <time>2014-09-04T12:43:47Z</time>
      </trkpt>
      <trkpt lat="43.75088" lon="3.438">
        <ele>364.27</ele>
        <time>2014-09-04T12:44:02Z</time>
      </trkpt>
      <trkpt lat="43.75107" lon="3.43806">
        <ele>362.02</ele>
        <time>2014-09-04T12:44:16Z</time>
      </trkpt>
      <trkpt lat="43.75124" lon="3.43812">
        <ele>364.25</ele>
        <time>2014-09-04T12:44:31Z</time>
      </trkpt>
      <trkpt lat="43.75142" lon="3.4382">
        <ele>358.32</ele>
        <time>2014-09-04T12:44:45Z</time>
      </trkpt>
      <trkpt lat="43.7516" lon="3.43814">
        <ele>346.6</ele>
        <time>2014-09-04T12:45:06Z</time>
      </trkpt>
      <trkpt lat="43.75167" lon="3.43791">
        <ele>343.89</ele>
        <time>2014-09-04T12:45:58Z</time>
      </trkpt>
      <trkpt lat="43.75171" lon="3.43766">
        <ele>343.84</ele>
        <time>2014-09-04T12:46:13Z</time>
      </trkpt>
      <trkpt lat="43.75179" lon="3.43742">
        <ele>339.95</ele>
        <time>2014-09-04T12:46:28Z</time>
      </trkpt>
      <trkpt lat="43.75195" lon="3.43753">
        <ele>333.27</ele>
        <time>2014-09-04T12:46:46Z</time>
      </trkpt>
      <trkpt lat="43.75211" lon="3.43766">
        <ele>329.16</ele>
        <time>2014-09-04T12:47:02Z</time>
      </trkpt>
      <trkpt lat="43.75227" lon="3.43753">
        <ele>328.27</ele>
        <time>2014-09-04T12:47:15Z</time>
      </trkpt>
      <trkpt lat="43.75243" lon="3.43768">
        <ele>324.59</ele>
        <time>2014-09-04T12:47:28Z</time>
      </trkpt>
      <trkpt lat="43.7526" lon="3.43775">
        <ele>320.25</ele>
        <time>2014-09-04T12:47:53Z</time>
      </trkpt>
      <trkpt lat="43.75278" lon="3.43769">
        <ele>317.69</ele>
        <time>2014-09-04T12:48:05Z</time>
      </trkpt>
      <trkpt lat="43.75296" lon="3.43779">
        <ele>317.33</ele>
        <time>2014-09-04T12:48:20Z</time>
      </trkpt>
      <trkpt lat="43.75311" lon="3.43765">
        <ele>312.47</ele>
        <time>2014-09-04T12:49:39Z</time>
      </trkpt>
      <trkpt lat="43.75318" lon="3.43741">
        <ele>311.03</ele>
        <time>2014-09-04T12:49:52Z</time>
      </trkpt>
      <trkpt lat="43.75322" lon="3.43716">
        <ele>307.38</ele>
        <time>2014-09-04T12:50:06Z</time>
      </trkpt>
      <trkpt lat="43.75324" lon="3.43691">
        <ele>302.13</ele>
        <time>2014-09-04T12:50:35Z</time>
      </trkpt>
      <trkpt lat="43.75342" lon="3.43694">
        <ele>302</ele>
        <time>2014-09-04T12:50:50Z</time>
      </trkpt>
      <trkpt lat="43.75361" lon="3.43695">
        <ele>304.94</ele>
        <time>2014-09-04T12:51:03Z</time>
      </trkpt>
      <trkpt lat="43.75379" lon="3.43695">
        <ele>303.66</ele>
        <time>2014-09-04T12:51:19Z</time>
      </trkpt>
      <trkpt lat="43.75396" lon="3.43684">
        <ele>306.01</ele>
        <time>2014-09-04T12:51:34Z</time>
      </trkpt>
      <trkpt lat="43.75412" lon="3.43669">
        <ele>303.6</ele>
        <time>2014-09-04T12:51:47Z</time>
      </trkpt>
      <trkpt lat="43.75425" lon="3.43651">
        <ele>304.23</ele>
        <time>2014-09-04T12:52:00Z</time>
      </trkpt>
      <trkpt lat="43.75439" lon="3.43635">
        <ele>300.88</ele>
        <time>2014-09-04T12:52:15Z</time>
      </trkpt>
      <trkpt lat="43.75453" lon="3.4362">
        <ele>304.08</ele>
        <time>2014-09-04T12:52:29Z</time>
      </trkpt>
      <trkpt lat="43.75467" lon="3.43604">
        <ele>310.45</ele>
        <time>2014-09-04T12:52:45Z</time>
      </trkpt>
      <trkpt lat="43.75462" lon="3.43579">
        <ele>311.28</ele>
        <time>2014-09-04T12:53:04Z</time>
      </trkpt>
      <trkpt lat="43.75446" lon="3.43568">
        <ele>308.76</ele>
        <time>2014-09-04T12:53:22Z</time>
      </trkpt>
    </trkseg>
  </trk>
</gpx>